<?xml version="1.0" encoding="UTF-8" standalone="no" ?>
<gpx xmlns="http://www.topografix.com/GPX/1/1" xmlns:xsi="http://www.w3.org/2001/XMLSchema-instance" xsi:schemaLocation="http://www.topografix.com/GPX/1/1 http://www.topografix.com/GPX/1/1/gpx.xsd" version="1.1" creator="VisuGPX - https://www.visugpx.com">
  <metadata>
    <name>Balade autour du Molkenrain</name>
    <desc><![CDATA[Trace AlpineQuest 30/04/2017 14:47:44]]></desc>
  </metadata>
  <trk>
    <name><![CDATA[molkenrain]]></name>
    <trkseg>
      <trkpt lat="47.85576" lon="7.13599">
        <ele>1007</ele>
        <time>2017-04-30T12:47:44Z</time>
      </trkpt>
      <trkpt lat="47.85569" lon="7.13595">
        <ele>1007</ele>
        <time>2017-04-30T12:47:55Z</time>
      </trkpt>
      <trkpt lat="47.85562" lon="7.1359">
        <ele>1007</ele>
        <time>2017-04-30T12:48:04Z</time>
      </trkpt>
      <trkpt lat="47.85555" lon="7.13585">
        <ele>1007</ele>
        <time>2017-04-30T12:48:11Z</time>
      </trkpt>
      <trkpt lat="47.85548" lon="7.13581">
        <ele>1016</ele>
        <time>2017-04-30T12:48:18Z</time>
      </trkpt>
      <trkpt lat="47.85541" lon="7.13574">
        <ele>1016</ele>
        <time>2017-04-30T12:48:26Z</time>
      </trkpt>
      <trkpt lat="47.85535" lon="7.13565">
        <ele>1017</ele>
        <time>2017-04-30T12:48:33Z</time>
      </trkpt>
      <trkpt lat="47.85528" lon="7.13558">
        <ele>1017</ele>
        <time>2017-04-30T12:48:40Z</time>
      </trkpt>
      <trkpt lat="47.85521" lon="7.13553">
        <ele>1017</ele>
        <time>2017-04-30T12:48:47Z</time>
      </trkpt>
      <trkpt lat="47.85515" lon="7.13546">
        <ele>1018</ele>
        <time>2017-04-30T12:48:54Z</time>
      </trkpt>
      <trkpt lat="47.85508" lon="7.1354">
        <ele>1019</ele>
        <time>2017-04-30T12:49:02Z</time>
      </trkpt>
      <trkpt lat="47.85501" lon="7.13536">
        <ele>1020</ele>
        <time>2017-04-30T12:49:09Z</time>
      </trkpt>
      <trkpt lat="47.85494" lon="7.13532">
        <ele>1023</ele>
        <time>2017-04-30T12:49:16Z</time>
      </trkpt>
      <trkpt lat="47.85487" lon="7.13528">
        <ele>1024</ele>
        <time>2017-04-30T12:49:22Z</time>
      </trkpt>
      <trkpt lat="47.8548" lon="7.13523">
        <ele>1024</ele>
        <time>2017-04-30T12:49:28Z</time>
      </trkpt>
      <trkpt lat="47.85472" lon="7.1352">
        <ele>1025</ele>
        <time>2017-04-30T12:49:35Z</time>
      </trkpt>
      <trkpt lat="47.85464" lon="7.13521">
        <ele>1025</ele>
        <time>2017-04-30T12:49:42Z</time>
      </trkpt>
      <trkpt lat="47.85457" lon="7.1352">
        <ele>1026</ele>
        <time>2017-04-30T12:49:49Z</time>
      </trkpt>
      <trkpt lat="47.8545" lon="7.13521">
        <ele>1026</ele>
        <time>2017-04-30T12:49:55Z</time>
      </trkpt>
      <trkpt lat="47.85443" lon="7.13525">
        <ele>1027</ele>
        <time>2017-04-30T12:50:01Z</time>
      </trkpt>
      <trkpt lat="47.85435" lon="7.13526">
        <ele>1027</ele>
        <time>2017-04-30T12:50:07Z</time>
      </trkpt>
      <trkpt lat="47.85427" lon="7.13529">
        <ele>1027</ele>
        <time>2017-04-30T12:50:13Z</time>
      </trkpt>
      <trkpt lat="47.8542" lon="7.13533">
        <ele>1027</ele>
        <time>2017-04-30T12:50:20Z</time>
      </trkpt>
      <trkpt lat="47.85412" lon="7.13537">
        <ele>1034</ele>
        <time>2017-04-30T12:50:27Z</time>
      </trkpt>
      <trkpt lat="47.85404" lon="7.13541">
        <ele>1034</ele>
        <time>2017-04-30T12:50:33Z</time>
      </trkpt>
      <trkpt lat="47.85396" lon="7.13542">
        <ele>1034</ele>
        <time>2017-04-30T12:50:40Z</time>
      </trkpt>
      <trkpt lat="47.85389" lon="7.13544">
        <ele>1034</ele>
        <time>2017-04-30T12:50:46Z</time>
      </trkpt>
      <trkpt lat="47.85382" lon="7.13547">
        <ele>1035</ele>
        <time>2017-04-30T12:50:52Z</time>
      </trkpt>
      <trkpt lat="47.85374" lon="7.1355">
        <ele>1035</ele>
        <time>2017-04-30T12:50:58Z</time>
      </trkpt>
      <trkpt lat="47.85366" lon="7.13553">
        <ele>1035</ele>
        <time>2017-04-30T12:51:07Z</time>
      </trkpt>
      <trkpt lat="47.85359" lon="7.13556">
        <ele>1036</ele>
        <time>2017-04-30T12:53:19Z</time>
      </trkpt>
      <trkpt lat="47.85352" lon="7.13561">
        <ele>1036</ele>
        <time>2017-04-30T12:53:50Z</time>
      </trkpt>
      <trkpt lat="47.85346" lon="7.13568">
        <ele>1036</ele>
        <time>2017-04-30T12:53:57Z</time>
      </trkpt>
      <trkpt lat="47.85339" lon="7.13572">
        <ele>1035</ele>
        <time>2017-04-30T12:54:03Z</time>
      </trkpt>
      <trkpt lat="47.85332" lon="7.13575">
        <ele>1040</ele>
        <time>2017-04-30T12:54:11Z</time>
      </trkpt>
      <trkpt lat="47.85325" lon="7.13581">
        <ele>1040</ele>
        <time>2017-04-30T12:54:18Z</time>
      </trkpt>
      <trkpt lat="47.85319" lon="7.13586">
        <ele>1037</ele>
        <time>2017-04-30T12:54:37Z</time>
      </trkpt>
      <trkpt lat="47.85319" lon="7.13575">
        <ele>1044</ele>
        <time>2017-04-30T12:56:21Z</time>
      </trkpt>
      <trkpt lat="47.85318" lon="7.13564">
        <ele>1046</ele>
        <time>2017-04-30T12:56:32Z</time>
      </trkpt>
      <trkpt lat="47.85322" lon="7.13554">
        <ele>1047</ele>
        <time>2017-04-30T12:56:39Z</time>
      </trkpt>
      <trkpt lat="47.85325" lon="7.13544">
        <ele>1049</ele>
        <time>2017-04-30T12:56:47Z</time>
      </trkpt>
      <trkpt lat="47.85325" lon="7.13532">
        <ele>1050</ele>
        <time>2017-04-30T12:56:54Z</time>
      </trkpt>
      <trkpt lat="47.85321" lon="7.13523">
        <ele>1051</ele>
        <time>2017-04-30T12:57:03Z</time>
      </trkpt>
      <trkpt lat="47.85317" lon="7.13512">
        <ele>1051</ele>
        <time>2017-04-30T12:57:12Z</time>
      </trkpt>
      <trkpt lat="47.85314" lon="7.13502">
        <ele>1052</ele>
        <time>2017-04-30T12:57:22Z</time>
      </trkpt>
      <trkpt lat="47.8531" lon="7.13492">
        <ele>1061</ele>
        <time>2017-04-30T12:57:31Z</time>
      </trkpt>
      <trkpt lat="47.85305" lon="7.13482">
        <ele>1064</ele>
        <time>2017-04-30T12:57:39Z</time>
      </trkpt>
      <trkpt lat="47.85302" lon="7.13471">
        <ele>1065</ele>
        <time>2017-04-30T12:57:48Z</time>
      </trkpt>
      <trkpt lat="47.85297" lon="7.13463">
        <ele>1067</ele>
        <time>2017-04-30T12:57:57Z</time>
      </trkpt>
      <trkpt lat="47.85292" lon="7.13454">
        <ele>1068</ele>
        <time>2017-04-30T12:58:07Z</time>
      </trkpt>
      <trkpt lat="47.85289" lon="7.13443">
        <ele>1070</ele>
        <time>2017-04-30T12:58:18Z</time>
      </trkpt>
      <trkpt lat="47.85281" lon="7.13438">
        <ele>1071</ele>
        <time>2017-04-30T12:58:29Z</time>
      </trkpt>
      <trkpt lat="47.85275" lon="7.13431">
        <ele>1073</ele>
        <time>2017-04-30T12:58:38Z</time>
      </trkpt>
      <trkpt lat="47.85268" lon="7.13424">
        <ele>1075</ele>
        <time>2017-04-30T12:58:49Z</time>
      </trkpt>
      <trkpt lat="47.85263" lon="7.13417">
        <ele>1078</ele>
        <time>2017-04-30T12:58:57Z</time>
      </trkpt>
      <trkpt lat="47.85259" lon="7.13408">
        <ele>1083</ele>
        <time>2017-04-30T12:59:07Z</time>
      </trkpt>
      <trkpt lat="47.85253" lon="7.13398">
        <ele>1083</ele>
        <time>2017-04-30T12:59:21Z</time>
      </trkpt>
      <trkpt lat="47.85248" lon="7.13388">
        <ele>1088</ele>
        <time>2017-04-30T12:59:29Z</time>
      </trkpt>
      <trkpt lat="47.85243" lon="7.13379">
        <ele>1089</ele>
        <time>2017-04-30T12:59:35Z</time>
      </trkpt>
      <trkpt lat="47.85238" lon="7.13371">
        <ele>1089</ele>
        <time>2017-04-30T12:59:41Z</time>
      </trkpt>
      <trkpt lat="47.85232" lon="7.13365">
        <ele>1089</ele>
        <time>2017-04-30T12:59:50Z</time>
      </trkpt>
      <trkpt lat="47.85226" lon="7.13357">
        <ele>1090</ele>
        <time>2017-04-30T13:01:05Z</time>
      </trkpt>
      <trkpt lat="47.85222" lon="7.13347">
        <ele>1090</ele>
        <time>2017-04-30T13:01:14Z</time>
      </trkpt>
      <trkpt lat="47.85218" lon="7.13337">
        <ele>1090</ele>
        <time>2017-04-30T13:01:23Z</time>
      </trkpt>
      <trkpt lat="47.85214" lon="7.13328">
        <ele>1089</ele>
        <time>2017-04-30T13:01:29Z</time>
      </trkpt>
      <trkpt lat="47.85207" lon="7.13325">
        <ele>1089</ele>
        <time>2017-04-30T13:01:36Z</time>
      </trkpt>
      <trkpt lat="47.85202" lon="7.13316">
        <ele>1089</ele>
        <time>2017-04-30T13:01:50Z</time>
      </trkpt>
      <trkpt lat="47.85195" lon="7.1331">
        <ele>1089</ele>
        <time>2017-04-30T13:02:05Z</time>
      </trkpt>
      <trkpt lat="47.85189" lon="7.13301">
        <ele>1089</ele>
        <time>2017-04-30T13:02:12Z</time>
      </trkpt>
      <trkpt lat="47.85184" lon="7.13291">
        <ele>1088</ele>
        <time>2017-04-30T13:02:19Z</time>
      </trkpt>
      <trkpt lat="47.85181" lon="7.13281">
        <ele>1088</ele>
        <time>2017-04-30T13:02:26Z</time>
      </trkpt>
      <trkpt lat="47.85178" lon="7.13269">
        <ele>1087</ele>
        <time>2017-04-30T13:02:34Z</time>
      </trkpt>
      <trkpt lat="47.85171" lon="7.13262">
        <ele>1086</ele>
        <time>2017-04-30T13:02:41Z</time>
      </trkpt>
      <trkpt lat="47.85165" lon="7.13257">
        <ele>1084</ele>
        <time>2017-04-30T13:02:48Z</time>
      </trkpt>
      <trkpt lat="47.85162" lon="7.13246">
        <ele>1082</ele>
        <time>2017-04-30T13:02:56Z</time>
      </trkpt>
      <trkpt lat="47.85161" lon="7.13235">
        <ele>1080</ele>
        <time>2017-04-30T13:03:05Z</time>
      </trkpt>
      <trkpt lat="47.85163" lon="7.13224">
        <ele>1079</ele>
        <time>2017-04-30T13:03:11Z</time>
      </trkpt>
      <trkpt lat="47.85162" lon="7.13213">
        <ele>1078</ele>
        <time>2017-04-30T13:03:19Z</time>
      </trkpt>
      <trkpt lat="47.85161" lon="7.13202">
        <ele>1078</ele>
        <time>2017-04-30T13:03:27Z</time>
      </trkpt>
      <trkpt lat="47.8516" lon="7.1319">
        <ele>1078</ele>
        <time>2017-04-30T13:03:34Z</time>
      </trkpt>
      <trkpt lat="47.85157" lon="7.13168">
        <ele>1080</ele>
        <time>2017-04-30T13:03:48Z</time>
      </trkpt>
      <trkpt lat="47.85157" lon="7.13157">
        <ele>1076</ele>
        <time>2017-04-30T13:03:55Z</time>
      </trkpt>
      <trkpt lat="47.85157" lon="7.13144">
        <ele>1074</ele>
        <time>2017-04-30T13:04:05Z</time>
      </trkpt>
      <trkpt lat="47.85154" lon="7.13133">
        <ele>1073</ele>
        <time>2017-04-30T13:04:19Z</time>
      </trkpt>
      <trkpt lat="47.85152" lon="7.13123">
        <ele>1072</ele>
        <time>2017-04-30T13:04:30Z</time>
      </trkpt>
      <trkpt lat="47.85151" lon="7.13112">
        <ele>1072</ele>
        <time>2017-04-30T13:04:42Z</time>
      </trkpt>
      <trkpt lat="47.85149" lon="7.13101">
        <ele>1072</ele>
        <time>2017-04-30T13:04:54Z</time>
      </trkpt>
      <trkpt lat="47.85146" lon="7.1309">
        <ele>1072</ele>
        <time>2017-04-30T13:05:02Z</time>
      </trkpt>
      <trkpt lat="47.85144" lon="7.13079">
        <ele>1068</ele>
        <time>2017-04-30T13:05:11Z</time>
      </trkpt>
      <trkpt lat="47.85143" lon="7.13068">
        <ele>1067</ele>
        <time>2017-04-30T13:05:18Z</time>
      </trkpt>
      <trkpt lat="47.85142" lon="7.13056">
        <ele>1066</ele>
        <time>2017-04-30T13:05:25Z</time>
      </trkpt>
      <trkpt lat="47.8514" lon="7.13045">
        <ele>1065</ele>
        <time>2017-04-30T13:05:33Z</time>
      </trkpt>
      <trkpt lat="47.8514" lon="7.13023">
        <ele>1064</ele>
        <time>2017-04-30T13:05:43Z</time>
      </trkpt>
      <trkpt lat="47.85137" lon="7.13011">
        <ele>1064</ele>
        <time>2017-04-30T13:05:49Z</time>
      </trkpt>
      <trkpt lat="47.85137" lon="7.13">
        <ele>1060</ele>
        <time>2017-04-30T13:05:55Z</time>
      </trkpt>
      <trkpt lat="47.85136" lon="7.12988">
        <ele>1059</ele>
        <time>2017-04-30T13:06:04Z</time>
      </trkpt>
      <trkpt lat="47.85134" lon="7.12977">
        <ele>1058</ele>
        <time>2017-04-30T13:06:09Z</time>
      </trkpt>
      <trkpt lat="47.85134" lon="7.12966">
        <ele>1057</ele>
        <time>2017-04-30T13:06:14Z</time>
      </trkpt>
      <trkpt lat="47.85133" lon="7.12954">
        <ele>1056</ele>
        <time>2017-04-30T13:06:21Z</time>
      </trkpt>
      <trkpt lat="47.85132" lon="7.12944">
        <ele>1056</ele>
        <time>2017-04-30T13:06:27Z</time>
      </trkpt>
      <trkpt lat="47.85131" lon="7.12931">
        <ele>1055</ele>
        <time>2017-04-30T13:06:36Z</time>
      </trkpt>
      <trkpt lat="47.85131" lon="7.12918">
        <ele>1055</ele>
        <time>2017-04-30T13:06:42Z</time>
      </trkpt>
      <trkpt lat="47.8513" lon="7.12906">
        <ele>1050</ele>
        <time>2017-04-30T13:06:47Z</time>
      </trkpt>
      <trkpt lat="47.85129" lon="7.12894">
        <ele>1049</ele>
        <time>2017-04-30T13:06:56Z</time>
      </trkpt>
      <trkpt lat="47.85128" lon="7.12883">
        <ele>1049</ele>
        <time>2017-04-30T13:07:02Z</time>
      </trkpt>
      <trkpt lat="47.85128" lon="7.12871">
        <ele>1048</ele>
        <time>2017-04-30T13:07:07Z</time>
      </trkpt>
      <trkpt lat="47.85126" lon="7.1286">
        <ele>1047</ele>
        <time>2017-04-30T13:07:13Z</time>
      </trkpt>
      <trkpt lat="47.85123" lon="7.12849">
        <ele>1046</ele>
        <time>2017-04-30T13:07:19Z</time>
      </trkpt>
      <trkpt lat="47.85121" lon="7.12837">
        <ele>1045</ele>
        <time>2017-04-30T13:07:25Z</time>
      </trkpt>
      <trkpt lat="47.85118" lon="7.12826">
        <ele>1041</ele>
        <time>2017-04-30T13:07:32Z</time>
      </trkpt>
      <trkpt lat="47.85119" lon="7.12813">
        <ele>1042</ele>
        <time>2017-04-30T13:07:40Z</time>
      </trkpt>
      <trkpt lat="47.85116" lon="7.12802">
        <ele>1041</ele>
        <time>2017-04-30T13:07:48Z</time>
      </trkpt>
      <trkpt lat="47.85113" lon="7.12792">
        <ele>1040</ele>
        <time>2017-04-30T13:07:55Z</time>
      </trkpt>
      <trkpt lat="47.85116" lon="7.12782">
        <ele>1040</ele>
        <time>2017-04-30T13:08:00Z</time>
      </trkpt>
      <trkpt lat="47.85114" lon="7.1277">
        <ele>1039</ele>
        <time>2017-04-30T13:08:06Z</time>
      </trkpt>
      <trkpt lat="47.85112" lon="7.12758">
        <ele>1038</ele>
        <time>2017-04-30T13:08:12Z</time>
      </trkpt>
      <trkpt lat="47.8511" lon="7.12748">
        <ele>1035</ele>
        <time>2017-04-30T13:08:20Z</time>
      </trkpt>
      <trkpt lat="47.85106" lon="7.12737">
        <ele>1034</ele>
        <time>2017-04-30T13:08:25Z</time>
      </trkpt>
      <trkpt lat="47.85102" lon="7.12728">
        <ele>1033</ele>
        <time>2017-04-30T13:08:30Z</time>
      </trkpt>
      <trkpt lat="47.85099" lon="7.12716">
        <ele>1034</ele>
        <time>2017-04-30T13:08:37Z</time>
      </trkpt>
      <trkpt lat="47.85097" lon="7.12703">
        <ele>1033</ele>
        <time>2017-04-30T13:08:42Z</time>
      </trkpt>
      <trkpt lat="47.85094" lon="7.12681">
        <ele>1028</ele>
        <time>2017-04-30T13:08:53Z</time>
      </trkpt>
      <trkpt lat="47.85092" lon="7.1267">
        <ele>1024</ele>
        <time>2017-04-30T13:08:59Z</time>
      </trkpt>
      <trkpt lat="47.85091" lon="7.12659">
        <ele>1023</ele>
        <time>2017-04-30T13:09:05Z</time>
      </trkpt>
      <trkpt lat="47.85088" lon="7.12648">
        <ele>1025</ele>
        <time>2017-04-30T13:09:12Z</time>
      </trkpt>
      <trkpt lat="47.85087" lon="7.12636">
        <ele>1027</ele>
        <time>2017-04-30T13:09:17Z</time>
      </trkpt>
      <trkpt lat="47.85084" lon="7.12625">
        <ele>1027</ele>
        <time>2017-04-30T13:09:24Z</time>
      </trkpt>
      <trkpt lat="47.85083" lon="7.12614">
        <ele>1003</ele>
        <time>2017-04-30T13:09:29Z</time>
      </trkpt>
      <trkpt lat="47.8508" lon="7.12602">
        <ele>1005</ele>
        <time>2017-04-30T13:09:36Z</time>
      </trkpt>
      <trkpt lat="47.85081" lon="7.1259">
        <ele>1009</ele>
        <time>2017-04-30T13:09:42Z</time>
      </trkpt>
      <trkpt lat="47.8508" lon="7.12578">
        <ele>1009</ele>
        <time>2017-04-30T13:09:48Z</time>
      </trkpt>
      <trkpt lat="47.85078" lon="7.12567">
        <ele>1003</ele>
        <time>2017-04-30T13:09:54Z</time>
      </trkpt>
      <trkpt lat="47.85073" lon="7.12557">
        <ele>1000</ele>
        <time>2017-04-30T13:10:00Z</time>
      </trkpt>
      <trkpt lat="47.85071" lon="7.12543">
        <ele>999</ele>
        <time>2017-04-30T13:10:06Z</time>
      </trkpt>
      <trkpt lat="47.8507" lon="7.12531">
        <ele>999</ele>
        <time>2017-04-30T13:10:13Z</time>
      </trkpt>
      <trkpt lat="47.85068" lon="7.12521">
        <ele>999</ele>
        <time>2017-04-30T13:10:18Z</time>
      </trkpt>
      <trkpt lat="47.85065" lon="7.1251">
        <ele>1000</ele>
        <time>2017-04-30T13:10:22Z</time>
      </trkpt>
      <trkpt lat="47.85062" lon="7.12498">
        <ele>996</ele>
        <time>2017-04-30T13:10:28Z</time>
      </trkpt>
      <trkpt lat="47.85064" lon="7.12485">
        <ele>995</ele>
        <time>2017-04-30T13:10:33Z</time>
      </trkpt>
      <trkpt lat="47.85062" lon="7.12472">
        <ele>993</ele>
        <time>2017-04-30T13:10:38Z</time>
      </trkpt>
      <trkpt lat="47.85062" lon="7.12461">
        <ele>992</ele>
        <time>2017-04-30T13:10:43Z</time>
      </trkpt>
      <trkpt lat="47.85059" lon="7.1245">
        <ele>991</ele>
        <time>2017-04-30T13:10:49Z</time>
      </trkpt>
      <trkpt lat="47.85056" lon="7.1244">
        <ele>990</ele>
        <time>2017-04-30T13:10:55Z</time>
      </trkpt>
      <trkpt lat="47.85056" lon="7.12426">
        <ele>991</ele>
        <time>2017-04-30T13:11:00Z</time>
      </trkpt>
      <trkpt lat="47.85056" lon="7.12414">
        <ele>987</ele>
        <time>2017-04-30T13:11:09Z</time>
      </trkpt>
      <trkpt lat="47.85057" lon="7.12403">
        <ele>986</ele>
        <time>2017-04-30T13:11:16Z</time>
      </trkpt>
      <trkpt lat="47.85056" lon="7.12392">
        <ele>984</ele>
        <time>2017-04-30T13:11:21Z</time>
      </trkpt>
      <trkpt lat="47.85054" lon="7.12382">
        <ele>982</ele>
        <time>2017-04-30T13:11:27Z</time>
      </trkpt>
      <trkpt lat="47.85054" lon="7.1237">
        <ele>982</ele>
        <time>2017-04-30T13:11:34Z</time>
      </trkpt>
      <trkpt lat="47.85054" lon="7.12359">
        <ele>981</ele>
        <time>2017-04-30T13:11:51Z</time>
      </trkpt>
      <trkpt lat="47.85057" lon="7.1235">
        <ele>983</ele>
        <time>2017-04-30T13:12:02Z</time>
      </trkpt>
      <trkpt lat="47.85057" lon="7.12338">
        <ele>984</ele>
        <time>2017-04-30T13:12:11Z</time>
      </trkpt>
      <trkpt lat="47.85054" lon="7.12327">
        <ele>980</ele>
        <time>2017-04-30T13:12:21Z</time>
      </trkpt>
      <trkpt lat="47.85051" lon="7.12316">
        <ele>978</ele>
        <time>2017-04-30T13:12:29Z</time>
      </trkpt>
      <trkpt lat="47.8505" lon="7.12306">
        <ele>977</ele>
        <time>2017-04-30T13:12:36Z</time>
      </trkpt>
      <trkpt lat="47.85047" lon="7.12295">
        <ele>976</ele>
        <time>2017-04-30T13:12:43Z</time>
      </trkpt>
      <trkpt lat="47.8504" lon="7.12289">
        <ele>974</ele>
        <time>2017-04-30T13:12:53Z</time>
      </trkpt>
      <trkpt lat="47.85036" lon="7.12279">
        <ele>973</ele>
        <time>2017-04-30T13:12:59Z</time>
      </trkpt>
      <trkpt lat="47.85035" lon="7.12266">
        <ele>972</ele>
        <time>2017-04-30T13:13:04Z</time>
      </trkpt>
      <trkpt lat="47.85029" lon="7.1226">
        <ele>969</ele>
        <time>2017-04-30T13:13:10Z</time>
      </trkpt>
      <trkpt lat="47.85023" lon="7.12251">
        <ele>967</ele>
        <time>2017-04-30T13:13:16Z</time>
      </trkpt>
      <trkpt lat="47.85018" lon="7.12243">
        <ele>967</ele>
        <time>2017-04-30T13:13:49Z</time>
      </trkpt>
      <trkpt lat="47.85016" lon="7.12231">
        <ele>969</ele>
        <time>2017-04-30T13:14:25Z</time>
      </trkpt>
      <trkpt lat="47.85011" lon="7.12221">
        <ele>970</ele>
        <time>2017-04-30T13:14:31Z</time>
      </trkpt>
      <trkpt lat="47.85009" lon="7.12209">
        <ele>972</ele>
        <time>2017-04-30T13:14:39Z</time>
      </trkpt>
      <trkpt lat="47.85005" lon="7.12199">
        <ele>972</ele>
        <time>2017-04-30T13:14:46Z</time>
      </trkpt>
      <trkpt lat="47.85002" lon="7.12188">
        <ele>971</ele>
        <time>2017-04-30T13:14:53Z</time>
      </trkpt>
      <trkpt lat="47.84996" lon="7.1218">
        <ele>955</ele>
        <time>2017-04-30T13:15:06Z</time>
      </trkpt>
      <trkpt lat="47.8499" lon="7.12172">
        <ele>956</ele>
        <time>2017-04-30T13:15:13Z</time>
      </trkpt>
      <trkpt lat="47.84978" lon="7.12156">
        <ele>956</ele>
        <time>2017-04-30T13:15:23Z</time>
      </trkpt>
      <trkpt lat="47.84972" lon="7.12151">
        <ele>953</ele>
        <time>2017-04-30T13:15:28Z</time>
      </trkpt>
      <trkpt lat="47.84967" lon="7.12142">
        <ele>952</ele>
        <time>2017-04-30T13:15:35Z</time>
      </trkpt>
      <trkpt lat="47.8496" lon="7.12147">
        <ele>950</ele>
        <time>2017-04-30T13:15:51Z</time>
      </trkpt>
      <trkpt lat="47.84955" lon="7.12156">
        <ele>949</ele>
        <time>2017-04-30T13:15:59Z</time>
      </trkpt>
      <trkpt lat="47.84948" lon="7.12151">
        <ele>947</ele>
        <time>2017-04-30T13:16:06Z</time>
      </trkpt>
      <trkpt lat="47.84944" lon="7.12141">
        <ele>947</ele>
        <time>2017-04-30T13:16:12Z</time>
      </trkpt>
      <trkpt lat="47.84939" lon="7.12132">
        <ele>946</ele>
        <time>2017-04-30T13:16:19Z</time>
      </trkpt>
      <trkpt lat="47.84935" lon="7.1212">
        <ele>946</ele>
        <time>2017-04-30T13:16:26Z</time>
      </trkpt>
      <trkpt lat="47.84934" lon="7.12107">
        <ele>946</ele>
        <time>2017-04-30T13:16:33Z</time>
      </trkpt>
      <trkpt lat="47.84932" lon="7.12097">
        <ele>945</ele>
        <time>2017-04-30T13:16:38Z</time>
      </trkpt>
      <trkpt lat="47.84935" lon="7.12087">
        <ele>945</ele>
        <time>2017-04-30T13:16:44Z</time>
      </trkpt>
      <trkpt lat="47.84934" lon="7.12075">
        <ele>943</ele>
        <time>2017-04-30T13:16:50Z</time>
      </trkpt>
      <trkpt lat="47.84935" lon="7.12064">
        <ele>944</ele>
        <time>2017-04-30T13:16:57Z</time>
      </trkpt>
      <trkpt lat="47.84937" lon="7.12053">
        <ele>944</ele>
        <time>2017-04-30T13:17:06Z</time>
      </trkpt>
      <trkpt lat="47.84938" lon="7.12039">
        <ele>944</ele>
        <time>2017-04-30T13:17:13Z</time>
      </trkpt>
      <trkpt lat="47.84934" lon="7.12028">
        <ele>942</ele>
        <time>2017-04-30T13:17:19Z</time>
      </trkpt>
      <trkpt lat="47.84931" lon="7.12018">
        <ele>940</ele>
        <time>2017-04-30T13:17:25Z</time>
      </trkpt>
      <trkpt lat="47.84926" lon="7.12008">
        <ele>937</ele>
        <time>2017-04-30T13:17:31Z</time>
      </trkpt>
      <trkpt lat="47.84923" lon="7.11998">
        <ele>932</ele>
        <time>2017-04-30T13:17:36Z</time>
      </trkpt>
      <trkpt lat="47.8492" lon="7.11987">
        <ele>932</ele>
        <time>2017-04-30T13:17:43Z</time>
      </trkpt>
      <trkpt lat="47.84919" lon="7.11975">
        <ele>932</ele>
        <time>2017-04-30T13:17:49Z</time>
      </trkpt>
      <trkpt lat="47.84918" lon="7.11963">
        <ele>931</ele>
        <time>2017-04-30T13:17:55Z</time>
      </trkpt>
      <trkpt lat="47.84916" lon="7.11951">
        <ele>917</ele>
        <time>2017-04-30T13:18:04Z</time>
      </trkpt>
      <trkpt lat="47.84913" lon="7.1194">
        <ele>917</ele>
        <time>2017-04-30T13:18:11Z</time>
      </trkpt>
      <trkpt lat="47.84912" lon="7.11927">
        <ele>919</ele>
        <time>2017-04-30T13:18:17Z</time>
      </trkpt>
      <trkpt lat="47.84912" lon="7.11915">
        <ele>921</ele>
        <time>2017-04-30T13:18:25Z</time>
      </trkpt>
      <trkpt lat="47.84911" lon="7.11904">
        <ele>918</ele>
        <time>2017-04-30T13:18:33Z</time>
      </trkpt>
      <trkpt lat="47.84908" lon="7.11889">
        <ele>915</ele>
        <time>2017-04-30T13:18:41Z</time>
      </trkpt>
      <trkpt lat="47.84899" lon="7.1187">
        <ele>913</ele>
        <time>2017-04-30T13:18:50Z</time>
      </trkpt>
      <trkpt lat="47.84894" lon="7.11861">
        <ele>913</ele>
        <time>2017-04-30T13:18:56Z</time>
      </trkpt>
      <trkpt lat="47.84888" lon="7.11855">
        <ele>913</ele>
        <time>2017-04-30T13:19:03Z</time>
      </trkpt>
      <trkpt lat="47.84884" lon="7.11845">
        <ele>913</ele>
        <time>2017-04-30T13:19:08Z</time>
      </trkpt>
      <trkpt lat="47.84881" lon="7.11835">
        <ele>912</ele>
        <time>2017-04-30T13:19:14Z</time>
      </trkpt>
      <trkpt lat="47.84877" lon="7.11826">
        <ele>911</ele>
        <time>2017-04-30T13:19:19Z</time>
      </trkpt>
      <trkpt lat="47.8487" lon="7.11819">
        <ele>911</ele>
        <time>2017-04-30T13:19:27Z</time>
      </trkpt>
      <trkpt lat="47.84873" lon="7.11809">
        <ele>911</ele>
        <time>2017-04-30T13:19:35Z</time>
      </trkpt>
      <trkpt lat="47.8487" lon="7.11799">
        <ele>911</ele>
        <time>2017-04-30T13:19:43Z</time>
      </trkpt>
      <trkpt lat="47.84868" lon="7.11788">
        <ele>911</ele>
        <time>2017-04-30T13:19:49Z</time>
      </trkpt>
      <trkpt lat="47.84871" lon="7.11778">
        <ele>911</ele>
        <time>2017-04-30T13:20:39Z</time>
      </trkpt>
      <trkpt lat="47.84865" lon="7.11773">
        <ele>911</ele>
        <time>2017-04-30T13:20:55Z</time>
      </trkpt>
      <trkpt lat="47.8487" lon="7.11764">
        <ele>911</ele>
        <time>2017-04-30T13:21:30Z</time>
      </trkpt>
      <trkpt lat="47.84874" lon="7.11756">
        <ele>910</ele>
        <time>2017-04-30T13:21:42Z</time>
      </trkpt>
      <trkpt lat="47.84879" lon="7.11747">
        <ele>907</ele>
        <time>2017-04-30T13:21:54Z</time>
      </trkpt>
      <trkpt lat="47.8488" lon="7.11735">
        <ele>906</ele>
        <time>2017-04-30T13:22:02Z</time>
      </trkpt>
      <trkpt lat="47.84879" lon="7.11723">
        <ele>906</ele>
        <time>2017-04-30T13:22:12Z</time>
      </trkpt>
      <trkpt lat="47.84878" lon="7.11711">
        <ele>906</ele>
        <time>2017-04-30T13:22:18Z</time>
      </trkpt>
      <trkpt lat="47.84877" lon="7.11701">
        <ele>906</ele>
        <time>2017-04-30T13:22:24Z</time>
      </trkpt>
      <trkpt lat="47.84878" lon="7.1169">
        <ele>905</ele>
        <time>2017-04-30T13:22:30Z</time>
      </trkpt>
      <trkpt lat="47.84877" lon="7.11678">
        <ele>905</ele>
        <time>2017-04-30T13:22:37Z</time>
      </trkpt>
      <trkpt lat="47.84879" lon="7.11666">
        <ele>900</ele>
        <time>2017-04-30T13:22:44Z</time>
      </trkpt>
      <trkpt lat="47.84879" lon="7.11655">
        <ele>900</ele>
        <time>2017-04-30T13:22:49Z</time>
      </trkpt>
      <trkpt lat="47.84877" lon="7.11644">
        <ele>900</ele>
        <time>2017-04-30T13:22:57Z</time>
      </trkpt>
      <trkpt lat="47.84876" lon="7.11631">
        <ele>900</ele>
        <time>2017-04-30T13:23:03Z</time>
      </trkpt>
      <trkpt lat="47.84879" lon="7.11619">
        <ele>899</ele>
        <time>2017-04-30T13:23:09Z</time>
      </trkpt>
      <trkpt lat="47.8488" lon="7.11607">
        <ele>898</ele>
        <time>2017-04-30T13:23:15Z</time>
      </trkpt>
      <trkpt lat="47.84877" lon="7.11594">
        <ele>898</ele>
        <time>2017-04-30T13:23:24Z</time>
      </trkpt>
      <trkpt lat="47.84882" lon="7.11573">
        <ele>889</ele>
        <time>2017-04-30T13:23:34Z</time>
      </trkpt>
      <trkpt lat="47.84887" lon="7.11564">
        <ele>887</ele>
        <time>2017-04-30T13:23:40Z</time>
      </trkpt>
      <trkpt lat="47.84892" lon="7.11556">
        <ele>886</ele>
        <time>2017-04-30T13:23:45Z</time>
      </trkpt>
      <trkpt lat="47.84898" lon="7.11547">
        <ele>885</ele>
        <time>2017-04-30T13:23:50Z</time>
      </trkpt>
      <trkpt lat="47.84902" lon="7.11538">
        <ele>883</ele>
        <time>2017-04-30T13:23:56Z</time>
      </trkpt>
      <trkpt lat="47.84908" lon="7.1153">
        <ele>881</ele>
        <time>2017-04-30T13:24:03Z</time>
      </trkpt>
      <trkpt lat="47.84916" lon="7.11531">
        <ele>881</ele>
        <time>2017-04-30T13:24:11Z</time>
      </trkpt>
      <trkpt lat="47.84923" lon="7.1153">
        <ele>859</ele>
        <time>2017-04-30T13:24:25Z</time>
      </trkpt>
      <trkpt lat="47.84931" lon="7.11528">
        <ele>858</ele>
        <time>2017-04-30T13:24:42Z</time>
      </trkpt>
      <trkpt lat="47.84924" lon="7.11528">
        <ele>859</ele>
        <time>2017-04-30T13:34:19Z</time>
      </trkpt>
      <trkpt lat="47.84919" lon="7.11537">
        <ele>860</ele>
        <time>2017-04-30T13:34:32Z</time>
      </trkpt>
      <trkpt lat="47.84915" lon="7.11547">
        <ele>883</ele>
        <time>2017-04-30T13:34:56Z</time>
      </trkpt>
      <trkpt lat="47.84921" lon="7.11555">
        <ele>863</ele>
        <time>2017-04-30T13:35:04Z</time>
      </trkpt>
      <trkpt lat="47.84922" lon="7.11566">
        <ele>868</ele>
        <time>2017-04-30T13:35:18Z</time>
      </trkpt>
      <trkpt lat="47.84929" lon="7.11573">
        <ele>868</ele>
        <time>2017-04-30T13:35:25Z</time>
      </trkpt>
      <trkpt lat="47.84935" lon="7.11581">
        <ele>867</ele>
        <time>2017-04-30T13:35:35Z</time>
      </trkpt>
      <trkpt lat="47.84942" lon="7.1159">
        <ele>870</ele>
        <time>2017-04-30T13:35:47Z</time>
      </trkpt>
      <trkpt lat="47.84948" lon="7.11599">
        <ele>868</ele>
        <time>2017-04-30T13:35:56Z</time>
      </trkpt>
      <trkpt lat="47.84954" lon="7.11606">
        <ele>866</ele>
        <time>2017-04-30T13:36:02Z</time>
      </trkpt>
      <trkpt lat="47.84958" lon="7.11615">
        <ele>865</ele>
        <time>2017-04-30T13:36:08Z</time>
      </trkpt>
      <trkpt lat="47.84963" lon="7.11624">
        <ele>864</ele>
        <time>2017-04-30T13:36:15Z</time>
      </trkpt>
      <trkpt lat="47.84975" lon="7.1164">
        <ele>862</ele>
        <time>2017-04-30T13:36:28Z</time>
      </trkpt>
      <trkpt lat="47.84979" lon="7.1165">
        <ele>860</ele>
        <time>2017-04-30T13:36:38Z</time>
      </trkpt>
      <trkpt lat="47.84985" lon="7.11659">
        <ele>857</ele>
        <time>2017-04-30T13:36:43Z</time>
      </trkpt>
      <trkpt lat="47.84991" lon="7.11666">
        <ele>854</ele>
        <time>2017-04-30T13:36:49Z</time>
      </trkpt>
      <trkpt lat="47.84996" lon="7.11675">
        <ele>858</ele>
        <time>2017-04-30T13:36:55Z</time>
      </trkpt>
      <trkpt lat="47.85002" lon="7.11683">
        <ele>849</ele>
        <time>2017-04-30T13:37:01Z</time>
      </trkpt>
      <trkpt lat="47.85008" lon="7.11691">
        <ele>849</ele>
        <time>2017-04-30T13:37:10Z</time>
      </trkpt>
      <trkpt lat="47.85013" lon="7.117">
        <ele>850</ele>
        <time>2017-04-30T13:37:15Z</time>
      </trkpt>
      <trkpt lat="47.85019" lon="7.1171">
        <ele>852</ele>
        <time>2017-04-30T13:37:20Z</time>
      </trkpt>
      <trkpt lat="47.85027" lon="7.11713">
        <ele>851</ele>
        <time>2017-04-30T13:37:26Z</time>
      </trkpt>
      <trkpt lat="47.85035" lon="7.11717">
        <ele>851</ele>
        <time>2017-04-30T13:37:33Z</time>
      </trkpt>
      <trkpt lat="47.85042" lon="7.11718">
        <ele>850</ele>
        <time>2017-04-30T13:37:38Z</time>
      </trkpt>
      <trkpt lat="47.8505" lon="7.11718">
        <ele>849</ele>
        <time>2017-04-30T13:37:47Z</time>
      </trkpt>
      <trkpt lat="47.85057" lon="7.11723">
        <ele>849</ele>
        <time>2017-04-30T13:37:53Z</time>
      </trkpt>
      <trkpt lat="47.85065" lon="7.11722">
        <ele>848</ele>
        <time>2017-04-30T13:37:58Z</time>
      </trkpt>
      <trkpt lat="47.85074" lon="7.11723">
        <ele>848</ele>
        <time>2017-04-30T13:38:04Z</time>
      </trkpt>
      <trkpt lat="47.85081" lon="7.11725">
        <ele>849</ele>
        <time>2017-04-30T13:38:09Z</time>
      </trkpt>
      <trkpt lat="47.8509" lon="7.11723">
        <ele>841</ele>
        <time>2017-04-30T13:38:15Z</time>
      </trkpt>
      <trkpt lat="47.85105" lon="7.11729">
        <ele>842</ele>
        <time>2017-04-30T13:38:25Z</time>
      </trkpt>
      <trkpt lat="47.85112" lon="7.11727">
        <ele>841</ele>
        <time>2017-04-30T13:38:31Z</time>
      </trkpt>
      <trkpt lat="47.8512" lon="7.11727">
        <ele>840</ele>
        <time>2017-04-30T13:38:36Z</time>
      </trkpt>
      <trkpt lat="47.85127" lon="7.11728">
        <ele>840</ele>
        <time>2017-04-30T13:38:41Z</time>
      </trkpt>
      <trkpt lat="47.85134" lon="7.11727">
        <ele>840</ele>
        <time>2017-04-30T13:38:46Z</time>
      </trkpt>
      <trkpt lat="47.85142" lon="7.11728">
        <ele>841</ele>
        <time>2017-04-30T13:38:51Z</time>
      </trkpt>
      <trkpt lat="47.8515" lon="7.11725">
        <ele>840</ele>
        <time>2017-04-30T13:38:59Z</time>
      </trkpt>
      <trkpt lat="47.85162" lon="7.11738">
        <ele>846</ele>
        <time>2017-04-30T13:39:07Z</time>
      </trkpt>
      <trkpt lat="47.85171" lon="7.11737">
        <ele>844</ele>
        <time>2017-04-30T13:39:14Z</time>
      </trkpt>
      <trkpt lat="47.85186" lon="7.11737">
        <ele>841</ele>
        <time>2017-04-30T13:39:25Z</time>
      </trkpt>
      <trkpt lat="47.85194" lon="7.11741">
        <ele>840</ele>
        <time>2017-04-30T13:39:31Z</time>
      </trkpt>
      <trkpt lat="47.85203" lon="7.11742">
        <ele>839</ele>
        <time>2017-04-30T13:39:37Z</time>
      </trkpt>
      <trkpt lat="47.85211" lon="7.11742">
        <ele>838</ele>
        <time>2017-04-30T13:39:44Z</time>
      </trkpt>
      <trkpt lat="47.85219" lon="7.11744">
        <ele>838</ele>
        <time>2017-04-30T13:39:50Z</time>
      </trkpt>
      <trkpt lat="47.85227" lon="7.11742">
        <ele>838</ele>
        <time>2017-04-30T13:39:56Z</time>
      </trkpt>
      <trkpt lat="47.85235" lon="7.11745">
        <ele>840</ele>
        <time>2017-04-30T13:40:01Z</time>
      </trkpt>
      <trkpt lat="47.85243" lon="7.11745">
        <ele>841</ele>
        <time>2017-04-30T13:40:06Z</time>
      </trkpt>
      <trkpt lat="47.85251" lon="7.11746">
        <ele>843</ele>
        <time>2017-04-30T13:40:12Z</time>
      </trkpt>
      <trkpt lat="47.85259" lon="7.11744">
        <ele>841</ele>
        <time>2017-04-30T13:40:18Z</time>
      </trkpt>
      <trkpt lat="47.85267" lon="7.11745">
        <ele>840</ele>
        <time>2017-04-30T13:40:26Z</time>
      </trkpt>
      <trkpt lat="47.85274" lon="7.11741">
        <ele>839</ele>
        <time>2017-04-30T13:40:32Z</time>
      </trkpt>
      <trkpt lat="47.85282" lon="7.11739">
        <ele>838</ele>
        <time>2017-04-30T13:40:48Z</time>
      </trkpt>
      <trkpt lat="47.85295" lon="7.11733">
        <ele>838</ele>
        <time>2017-04-30T13:40:58Z</time>
      </trkpt>
      <trkpt lat="47.85303" lon="7.11728">
        <ele>838</ele>
        <time>2017-04-30T13:41:03Z</time>
      </trkpt>
      <trkpt lat="47.85309" lon="7.11723">
        <ele>838</ele>
        <time>2017-04-30T13:41:08Z</time>
      </trkpt>
      <trkpt lat="47.85315" lon="7.11716">
        <ele>837</ele>
        <time>2017-04-30T13:41:16Z</time>
      </trkpt>
      <trkpt lat="47.85322" lon="7.11712">
        <ele>836</ele>
        <time>2017-04-30T13:41:23Z</time>
      </trkpt>
      <trkpt lat="47.85328" lon="7.11706">
        <ele>835</ele>
        <time>2017-04-30T13:41:29Z</time>
      </trkpt>
      <trkpt lat="47.85335" lon="7.117">
        <ele>832</ele>
        <time>2017-04-30T13:41:40Z</time>
      </trkpt>
      <trkpt lat="47.85341" lon="7.11692">
        <ele>830</ele>
        <time>2017-04-30T13:41:49Z</time>
      </trkpt>
      <trkpt lat="47.85348" lon="7.11684">
        <ele>829</ele>
        <time>2017-04-30T13:41:55Z</time>
      </trkpt>
      <trkpt lat="47.85354" lon="7.11677">
        <ele>828</ele>
        <time>2017-04-30T13:42:01Z</time>
      </trkpt>
      <trkpt lat="47.85361" lon="7.11671">
        <ele>828</ele>
        <time>2017-04-30T13:42:08Z</time>
      </trkpt>
      <trkpt lat="47.85368" lon="7.11665">
        <ele>816</ele>
        <time>2017-04-30T13:42:14Z</time>
      </trkpt>
      <trkpt lat="47.85375" lon="7.1166">
        <ele>815</ele>
        <time>2017-04-30T13:42:20Z</time>
      </trkpt>
      <trkpt lat="47.85383" lon="7.11658">
        <ele>814</ele>
        <time>2017-04-30T13:42:26Z</time>
      </trkpt>
      <trkpt lat="47.8539" lon="7.11656">
        <ele>813</ele>
        <time>2017-04-30T13:42:32Z</time>
      </trkpt>
      <trkpt lat="47.85397" lon="7.11653">
        <ele>813</ele>
        <time>2017-04-30T13:42:37Z</time>
      </trkpt>
      <trkpt lat="47.85404" lon="7.1165">
        <ele>813</ele>
        <time>2017-04-30T13:42:44Z</time>
      </trkpt>
      <trkpt lat="47.85412" lon="7.11654">
        <ele>813</ele>
        <time>2017-04-30T13:45:03Z</time>
      </trkpt>
      <trkpt lat="47.8542" lon="7.11657">
        <ele>806</ele>
        <time>2017-04-30T13:45:12Z</time>
      </trkpt>
      <trkpt lat="47.85423" lon="7.11667">
        <ele>812</ele>
        <time>2017-04-30T13:45:17Z</time>
      </trkpt>
      <trkpt lat="47.85428" lon="7.11678">
        <ele>810</ele>
        <time>2017-04-30T13:45:24Z</time>
      </trkpt>
      <trkpt lat="47.85434" lon="7.11686">
        <ele>808</ele>
        <time>2017-04-30T13:45:31Z</time>
      </trkpt>
      <trkpt lat="47.85441" lon="7.11693">
        <ele>806</ele>
        <time>2017-04-30T13:45:38Z</time>
      </trkpt>
      <trkpt lat="47.8545" lon="7.11697">
        <ele>804</ele>
        <time>2017-04-30T13:45:43Z</time>
      </trkpt>
      <trkpt lat="47.85454" lon="7.11706">
        <ele>804</ele>
        <time>2017-04-30T13:45:50Z</time>
      </trkpt>
      <trkpt lat="47.85461" lon="7.11713">
        <ele>803</ele>
        <time>2017-04-30T13:46:02Z</time>
      </trkpt>
      <trkpt lat="47.85466" lon="7.11722">
        <ele>803</ele>
        <time>2017-04-30T13:46:12Z</time>
      </trkpt>
      <trkpt lat="47.85472" lon="7.11728">
        <ele>801</ele>
        <time>2017-04-30T13:46:26Z</time>
      </trkpt>
      <trkpt lat="47.85475" lon="7.1174">
        <ele>801</ele>
        <time>2017-04-30T13:46:33Z</time>
      </trkpt>
      <trkpt lat="47.85476" lon="7.1175">
        <ele>807</ele>
        <time>2017-04-30T13:46:39Z</time>
      </trkpt>
      <trkpt lat="47.8548" lon="7.11761">
        <ele>807</ele>
        <time>2017-04-30T13:46:45Z</time>
      </trkpt>
      <trkpt lat="47.85483" lon="7.11773">
        <ele>808</ele>
        <time>2017-04-30T13:46:52Z</time>
      </trkpt>
      <trkpt lat="47.85487" lon="7.11785">
        <ele>809</ele>
        <time>2017-04-30T13:47:00Z</time>
      </trkpt>
      <trkpt lat="47.85492" lon="7.11795">
        <ele>810</ele>
        <time>2017-04-30T13:47:06Z</time>
      </trkpt>
      <trkpt lat="47.85497" lon="7.11804">
        <ele>809</ele>
        <time>2017-04-30T13:47:11Z</time>
      </trkpt>
      <trkpt lat="47.855" lon="7.11815">
        <ele>792</ele>
        <time>2017-04-30T13:47:17Z</time>
      </trkpt>
      <trkpt lat="47.85503" lon="7.11828">
        <ele>798</ele>
        <time>2017-04-30T13:47:23Z</time>
      </trkpt>
      <trkpt lat="47.85508" lon="7.11849">
        <ele>799</ele>
        <time>2017-04-30T13:47:32Z</time>
      </trkpt>
      <trkpt lat="47.85509" lon="7.1186">
        <ele>798</ele>
        <time>2017-04-30T13:47:39Z</time>
      </trkpt>
      <trkpt lat="47.8551" lon="7.11873">
        <ele>799</ele>
        <time>2017-04-30T13:47:44Z</time>
      </trkpt>
      <trkpt lat="47.85514" lon="7.11884">
        <ele>800</ele>
        <time>2017-04-30T13:47:50Z</time>
      </trkpt>
      <trkpt lat="47.85516" lon="7.11895">
        <ele>802</ele>
        <time>2017-04-30T13:47:56Z</time>
      </trkpt>
      <trkpt lat="47.85518" lon="7.11906">
        <ele>804</ele>
        <time>2017-04-30T13:48:01Z</time>
      </trkpt>
      <trkpt lat="47.85522" lon="7.11916">
        <ele>804</ele>
        <time>2017-04-30T13:48:09Z</time>
      </trkpt>
      <trkpt lat="47.85524" lon="7.11926">
        <ele>812</ele>
        <time>2017-04-30T13:48:15Z</time>
      </trkpt>
      <trkpt lat="47.85526" lon="7.11939">
        <ele>812</ele>
        <time>2017-04-30T13:48:22Z</time>
      </trkpt>
      <trkpt lat="47.85529" lon="7.11951">
        <ele>812</ele>
        <time>2017-04-30T13:48:29Z</time>
      </trkpt>
      <trkpt lat="47.8553" lon="7.11973">
        <ele>815</ele>
        <time>2017-04-30T13:48:39Z</time>
      </trkpt>
      <trkpt lat="47.85532" lon="7.11985">
        <ele>816</ele>
        <time>2017-04-30T13:48:44Z</time>
      </trkpt>
      <trkpt lat="47.85538" lon="7.11994">
        <ele>815</ele>
        <time>2017-04-30T13:48:52Z</time>
      </trkpt>
      <trkpt lat="47.85544" lon="7.12001">
        <ele>826</ele>
        <time>2017-04-30T13:48:59Z</time>
      </trkpt>
      <trkpt lat="47.85551" lon="7.12004">
        <ele>824</ele>
        <time>2017-04-30T13:49:06Z</time>
      </trkpt>
      <trkpt lat="47.85558" lon="7.12009">
        <ele>822</ele>
        <time>2017-04-30T13:49:13Z</time>
      </trkpt>
      <trkpt lat="47.85565" lon="7.12016">
        <ele>821</ele>
        <time>2017-04-30T13:49:20Z</time>
      </trkpt>
      <trkpt lat="47.85571" lon="7.12022">
        <ele>821</ele>
        <time>2017-04-30T13:49:25Z</time>
      </trkpt>
      <trkpt lat="47.85578" lon="7.12031">
        <ele>823</ele>
        <time>2017-04-30T13:49:30Z</time>
      </trkpt>
      <trkpt lat="47.85582" lon="7.12042">
        <ele>826</ele>
        <time>2017-04-30T13:49:36Z</time>
      </trkpt>
      <trkpt lat="47.85587" lon="7.12051">
        <ele>808</ele>
        <time>2017-04-30T13:49:42Z</time>
      </trkpt>
      <trkpt lat="47.8558" lon="7.12057">
        <ele>828</ele>
        <time>2017-04-30T13:49:56Z</time>
      </trkpt>
      <trkpt lat="47.85573" lon="7.12055">
        <ele>828</ele>
        <time>2017-04-30T13:50:01Z</time>
      </trkpt>
      <trkpt lat="47.85566" lon="7.12052">
        <ele>829</ele>
        <time>2017-04-30T13:50:21Z</time>
      </trkpt>
      <trkpt lat="47.85559" lon="7.12049">
        <ele>830</ele>
        <time>2017-04-30T13:50:27Z</time>
      </trkpt>
      <trkpt lat="47.85551" lon="7.12049">
        <ele>831</ele>
        <time>2017-04-30T13:50:38Z</time>
      </trkpt>
      <trkpt lat="47.85545" lon="7.12054">
        <ele>833</ele>
        <time>2017-04-30T13:50:47Z</time>
      </trkpt>
      <trkpt lat="47.85537" lon="7.12057">
        <ele>835</ele>
        <time>2017-04-30T13:50:52Z</time>
      </trkpt>
      <trkpt lat="47.8553" lon="7.12053">
        <ele>836</ele>
        <time>2017-04-30T13:50:58Z</time>
      </trkpt>
      <trkpt lat="47.85511" lon="7.12045">
        <ele>837</ele>
        <time>2017-04-30T13:51:07Z</time>
      </trkpt>
      <trkpt lat="47.85502" lon="7.12041">
        <ele>837</ele>
        <time>2017-04-30T13:51:12Z</time>
      </trkpt>
      <trkpt lat="47.85495" lon="7.12035">
        <ele>855</ele>
        <time>2017-04-30T13:51:19Z</time>
      </trkpt>
      <trkpt lat="47.85489" lon="7.12027">
        <ele>853</ele>
        <time>2017-04-30T13:51:26Z</time>
      </trkpt>
      <trkpt lat="47.85484" lon="7.12017">
        <ele>852</ele>
        <time>2017-04-30T13:51:33Z</time>
      </trkpt>
      <trkpt lat="47.85479" lon="7.12009">
        <ele>851</ele>
        <time>2017-04-30T13:51:39Z</time>
      </trkpt>
      <trkpt lat="47.85472" lon="7.12003">
        <ele>853</ele>
        <time>2017-04-30T13:51:44Z</time>
      </trkpt>
      <trkpt lat="47.85467" lon="7.11995">
        <ele>843</ele>
        <time>2017-04-30T13:51:50Z</time>
      </trkpt>
      <trkpt lat="47.85459" lon="7.11989">
        <ele>845</ele>
        <time>2017-04-30T13:51:56Z</time>
      </trkpt>
      <trkpt lat="47.85453" lon="7.11981">
        <ele>846</ele>
        <time>2017-04-30T13:52:02Z</time>
      </trkpt>
      <trkpt lat="47.85445" lon="7.11978">
        <ele>847</ele>
        <time>2017-04-30T13:52:08Z</time>
      </trkpt>
      <trkpt lat="47.85439" lon="7.1197">
        <ele>847</ele>
        <time>2017-04-30T13:52:14Z</time>
      </trkpt>
      <trkpt lat="47.85435" lon="7.11961">
        <ele>846</ele>
        <time>2017-04-30T13:52:20Z</time>
      </trkpt>
      <trkpt lat="47.8543" lon="7.11951">
        <ele>846</ele>
        <time>2017-04-30T13:52:30Z</time>
      </trkpt>
      <trkpt lat="47.85424" lon="7.11945">
        <ele>846</ele>
        <time>2017-04-30T13:52:35Z</time>
      </trkpt>
      <trkpt lat="47.85417" lon="7.1194">
        <ele>846</ele>
        <time>2017-04-30T13:52:39Z</time>
      </trkpt>
      <trkpt lat="47.8541" lon="7.11931">
        <ele>861</ele>
        <time>2017-04-30T13:52:51Z</time>
      </trkpt>
      <trkpt lat="47.85398" lon="7.11915">
        <ele>856</ele>
        <time>2017-04-30T13:53:01Z</time>
      </trkpt>
      <trkpt lat="47.85386" lon="7.119">
        <ele>860</ele>
        <time>2017-04-30T13:53:12Z</time>
      </trkpt>
      <trkpt lat="47.85389" lon="7.11911">
        <ele>859</ele>
        <time>2017-04-30T13:54:04Z</time>
      </trkpt>
      <trkpt lat="47.8539" lon="7.11922">
        <ele>867</ele>
        <time>2017-04-30T13:54:13Z</time>
      </trkpt>
      <trkpt lat="47.85391" lon="7.11934">
        <ele>868</ele>
        <time>2017-04-30T13:54:22Z</time>
      </trkpt>
      <trkpt lat="47.85391" lon="7.11946">
        <ele>871</ele>
        <time>2017-04-30T13:54:29Z</time>
      </trkpt>
      <trkpt lat="47.85391" lon="7.11958">
        <ele>872</ele>
        <time>2017-04-30T13:54:37Z</time>
      </trkpt>
      <trkpt lat="47.85394" lon="7.11968">
        <ele>873</ele>
        <time>2017-04-30T13:54:46Z</time>
      </trkpt>
      <trkpt lat="47.85394" lon="7.11979">
        <ele>873</ele>
        <time>2017-04-30T13:54:57Z</time>
      </trkpt>
      <trkpt lat="47.85399" lon="7.11987">
        <ele>872</ele>
        <time>2017-04-30T13:55:07Z</time>
      </trkpt>
      <trkpt lat="47.854" lon="7.11999">
        <ele>871</ele>
        <time>2017-04-30T13:55:18Z</time>
      </trkpt>
      <trkpt lat="47.85403" lon="7.12009">
        <ele>879</ele>
        <time>2017-04-30T13:55:25Z</time>
      </trkpt>
      <trkpt lat="47.85407" lon="7.12018">
        <ele>881</ele>
        <time>2017-04-30T13:55:32Z</time>
      </trkpt>
      <trkpt lat="47.85411" lon="7.12029">
        <ele>884</ele>
        <time>2017-04-30T13:55:39Z</time>
      </trkpt>
      <trkpt lat="47.85414" lon="7.12041">
        <ele>886</ele>
        <time>2017-04-30T13:55:45Z</time>
      </trkpt>
      <trkpt lat="47.85419" lon="7.1205">
        <ele>868</ele>
        <time>2017-04-30T13:55:54Z</time>
      </trkpt>
      <trkpt lat="47.85425" lon="7.12071">
        <ele>875</ele>
        <time>2017-04-30T13:56:06Z</time>
      </trkpt>
      <trkpt lat="47.85427" lon="7.12082">
        <ele>877</ele>
        <time>2017-04-30T13:56:13Z</time>
      </trkpt>
      <trkpt lat="47.85431" lon="7.12093">
        <ele>884</ele>
        <time>2017-04-30T13:56:19Z</time>
      </trkpt>
      <trkpt lat="47.85435" lon="7.12102">
        <ele>884</ele>
        <time>2017-04-30T13:56:27Z</time>
      </trkpt>
      <trkpt lat="47.85436" lon="7.12114">
        <ele>885</ele>
        <time>2017-04-30T13:56:36Z</time>
      </trkpt>
      <trkpt lat="47.8544" lon="7.12123">
        <ele>885</ele>
        <time>2017-04-30T13:56:43Z</time>
      </trkpt>
      <trkpt lat="47.85444" lon="7.12133">
        <ele>886</ele>
        <time>2017-04-30T13:56:51Z</time>
      </trkpt>
      <trkpt lat="47.8545" lon="7.12143">
        <ele>887</ele>
        <time>2017-04-30T13:56:58Z</time>
      </trkpt>
      <trkpt lat="47.85454" lon="7.12153">
        <ele>887</ele>
        <time>2017-04-30T13:57:05Z</time>
      </trkpt>
      <trkpt lat="47.85456" lon="7.12164">
        <ele>888</ele>
        <time>2017-04-30T13:57:12Z</time>
      </trkpt>
      <trkpt lat="47.85459" lon="7.12174">
        <ele>901</ele>
        <time>2017-04-30T13:57:18Z</time>
      </trkpt>
      <trkpt lat="47.85463" lon="7.12183">
        <ele>901</ele>
        <time>2017-04-30T13:57:25Z</time>
      </trkpt>
      <trkpt lat="47.8547" lon="7.12186">
        <ele>900</ele>
        <time>2017-04-30T13:57:35Z</time>
      </trkpt>
      <trkpt lat="47.85477" lon="7.12192">
        <ele>900</ele>
        <time>2017-04-30T13:57:42Z</time>
      </trkpt>
      <trkpt lat="47.85482" lon="7.12201">
        <ele>901</ele>
        <time>2017-04-30T13:57:49Z</time>
      </trkpt>
      <trkpt lat="47.85486" lon="7.1221">
        <ele>902</ele>
        <time>2017-04-30T13:57:55Z</time>
      </trkpt>
      <trkpt lat="47.85491" lon="7.12222">
        <ele>904</ele>
        <time>2017-04-30T13:58:01Z</time>
      </trkpt>
      <trkpt lat="47.85496" lon="7.1223">
        <ele>904</ele>
        <time>2017-04-30T13:58:10Z</time>
      </trkpt>
      <trkpt lat="47.85501" lon="7.1224">
        <ele>897</ele>
        <time>2017-04-30T13:58:15Z</time>
      </trkpt>
      <trkpt lat="47.85505" lon="7.12248">
        <ele>900</ele>
        <time>2017-04-30T13:58:22Z</time>
      </trkpt>
      <trkpt lat="47.8551" lon="7.12258">
        <ele>904</ele>
        <time>2017-04-30T13:58:29Z</time>
      </trkpt>
      <trkpt lat="47.85517" lon="7.12266">
        <ele>904</ele>
        <time>2017-04-30T13:58:40Z</time>
      </trkpt>
      <trkpt lat="47.85522" lon="7.12272">
        <ele>904</ele>
        <time>2017-04-30T13:58:53Z</time>
      </trkpt>
      <trkpt lat="47.85528" lon="7.12281">
        <ele>904</ele>
        <time>2017-04-30T13:59:02Z</time>
      </trkpt>
      <trkpt lat="47.85532" lon="7.1229">
        <ele>904</ele>
        <time>2017-04-30T13:59:09Z</time>
      </trkpt>
      <trkpt lat="47.85538" lon="7.12299">
        <ele>905</ele>
        <time>2017-04-30T13:59:17Z</time>
      </trkpt>
      <trkpt lat="47.85541" lon="7.12311">
        <ele>905</ele>
        <time>2017-04-30T13:59:25Z</time>
      </trkpt>
      <trkpt lat="47.85548" lon="7.1233">
        <ele>905</ele>
        <time>2017-04-30T13:59:35Z</time>
      </trkpt>
      <trkpt lat="47.85554" lon="7.12337">
        <ele>919</ele>
        <time>2017-04-30T13:59:44Z</time>
      </trkpt>
      <trkpt lat="47.85558" lon="7.12348">
        <ele>919</ele>
        <time>2017-04-30T13:59:51Z</time>
      </trkpt>
      <trkpt lat="47.85564" lon="7.12356">
        <ele>919</ele>
        <time>2017-04-30T14:00:02Z</time>
      </trkpt>
      <trkpt lat="47.85571" lon="7.12365">
        <ele>920</ele>
        <time>2017-04-30T14:00:10Z</time>
      </trkpt>
      <trkpt lat="47.85577" lon="7.12374">
        <ele>921</ele>
        <time>2017-04-30T14:00:18Z</time>
      </trkpt>
      <trkpt lat="47.85582" lon="7.12383">
        <ele>923</ele>
        <time>2017-04-30T14:00:24Z</time>
      </trkpt>
      <trkpt lat="47.85588" lon="7.1239">
        <ele>904</ele>
        <time>2017-04-30T14:00:32Z</time>
      </trkpt>
      <trkpt lat="47.85592" lon="7.124">
        <ele>907</ele>
        <time>2017-04-30T14:00:40Z</time>
      </trkpt>
      <trkpt lat="47.85597" lon="7.12409">
        <ele>909</ele>
        <time>2017-04-30T14:00:47Z</time>
      </trkpt>
      <trkpt lat="47.85601" lon="7.1242">
        <ele>923</ele>
        <time>2017-04-30T14:00:57Z</time>
      </trkpt>
      <trkpt lat="47.85607" lon="7.12429">
        <ele>923</ele>
        <time>2017-04-30T14:01:06Z</time>
      </trkpt>
      <trkpt lat="47.85613" lon="7.12436">
        <ele>923</ele>
        <time>2017-04-30T14:01:13Z</time>
      </trkpt>
      <trkpt lat="47.85617" lon="7.12445">
        <ele>924</ele>
        <time>2017-04-30T14:01:20Z</time>
      </trkpt>
      <trkpt lat="47.85622" lon="7.12453">
        <ele>925</ele>
        <time>2017-04-30T14:01:29Z</time>
      </trkpt>
      <trkpt lat="47.85628" lon="7.1246">
        <ele>925</ele>
        <time>2017-04-30T14:01:41Z</time>
      </trkpt>
      <trkpt lat="47.85633" lon="7.12467">
        <ele>926</ele>
        <time>2017-04-30T14:01:57Z</time>
      </trkpt>
      <trkpt lat="47.85641" lon="7.12468">
        <ele>925</ele>
        <time>2017-04-30T14:03:06Z</time>
      </trkpt>
      <trkpt lat="47.85648" lon="7.12471">
        <ele>925</ele>
        <time>2017-04-30T14:03:12Z</time>
      </trkpt>
      <trkpt lat="47.85654" lon="7.12477">
        <ele>925</ele>
        <time>2017-04-30T14:03:18Z</time>
      </trkpt>
      <trkpt lat="47.85661" lon="7.12484">
        <ele>926</ele>
        <time>2017-04-30T14:03:24Z</time>
      </trkpt>
      <trkpt lat="47.85667" lon="7.1249">
        <ele>922</ele>
        <time>2017-04-30T14:03:30Z</time>
      </trkpt>
      <trkpt lat="47.85674" lon="7.12494">
        <ele>922</ele>
        <time>2017-04-30T14:03:37Z</time>
      </trkpt>
      <trkpt lat="47.85681" lon="7.12498">
        <ele>920</ele>
        <time>2017-04-30T14:03:42Z</time>
      </trkpt>
      <trkpt lat="47.85688" lon="7.12505">
        <ele>932</ele>
        <time>2017-04-30T14:03:48Z</time>
      </trkpt>
      <trkpt lat="47.85695" lon="7.12512">
        <ele>932</ele>
        <time>2017-04-30T14:03:54Z</time>
      </trkpt>
      <trkpt lat="47.85703" lon="7.12511">
        <ele>931</ele>
        <time>2017-04-30T14:04:02Z</time>
      </trkpt>
      <trkpt lat="47.85711" lon="7.12509">
        <ele>930</ele>
        <time>2017-04-30T14:04:10Z</time>
      </trkpt>
      <trkpt lat="47.85719" lon="7.12514">
        <ele>930</ele>
        <time>2017-04-30T14:04:16Z</time>
      </trkpt>
      <trkpt lat="47.85726" lon="7.12515">
        <ele>928</ele>
        <time>2017-04-30T14:04:20Z</time>
      </trkpt>
      <trkpt lat="47.85733" lon="7.1252">
        <ele>928</ele>
        <time>2017-04-30T14:04:25Z</time>
      </trkpt>
      <trkpt lat="47.8574" lon="7.12522">
        <ele>927</ele>
        <time>2017-04-30T14:04:31Z</time>
      </trkpt>
      <trkpt lat="47.85748" lon="7.12522">
        <ele>927</ele>
        <time>2017-04-30T14:04:38Z</time>
      </trkpt>
      <trkpt lat="47.85756" lon="7.12523">
        <ele>923</ele>
        <time>2017-04-30T14:04:43Z</time>
      </trkpt>
      <trkpt lat="47.85763" lon="7.12526">
        <ele>924</ele>
        <time>2017-04-30T14:04:49Z</time>
      </trkpt>
      <trkpt lat="47.8577" lon="7.12533">
        <ele>925</ele>
        <time>2017-04-30T14:04:54Z</time>
      </trkpt>
      <trkpt lat="47.85777" lon="7.12537">
        <ele>926</ele>
        <time>2017-04-30T14:05:01Z</time>
      </trkpt>
      <trkpt lat="47.85785" lon="7.1254">
        <ele>926</ele>
        <time>2017-04-30T14:05:07Z</time>
      </trkpt>
      <trkpt lat="47.85793" lon="7.12542">
        <ele>927</ele>
        <time>2017-04-30T14:05:14Z</time>
      </trkpt>
      <trkpt lat="47.85802" lon="7.12542">
        <ele>927</ele>
        <time>2017-04-30T14:05:21Z</time>
      </trkpt>
      <trkpt lat="47.85811" lon="7.12544">
        <ele>927</ele>
        <time>2017-04-30T14:05:30Z</time>
      </trkpt>
      <trkpt lat="47.85818" lon="7.12548">
        <ele>928</ele>
        <time>2017-04-30T14:05:36Z</time>
      </trkpt>
      <trkpt lat="47.85826" lon="7.12546">
        <ele>928</ele>
        <time>2017-04-30T14:05:42Z</time>
      </trkpt>
      <trkpt lat="47.85834" lon="7.1255">
        <ele>938</ele>
        <time>2017-04-30T14:05:47Z</time>
      </trkpt>
      <trkpt lat="47.85842" lon="7.1255">
        <ele>939</ele>
        <time>2017-04-30T14:05:54Z</time>
      </trkpt>
      <trkpt lat="47.85846" lon="7.12539">
        <ele>938</ele>
        <time>2017-04-30T14:06:03Z</time>
      </trkpt>
      <trkpt lat="47.8585" lon="7.12529">
        <ele>937</ele>
        <time>2017-04-30T14:06:10Z</time>
      </trkpt>
      <trkpt lat="47.85856" lon="7.12517">
        <ele>936</ele>
        <time>2017-04-30T14:06:18Z</time>
      </trkpt>
      <trkpt lat="47.8586" lon="7.12507">
        <ele>936</ele>
        <time>2017-04-30T14:06:23Z</time>
      </trkpt>
      <trkpt lat="47.85864" lon="7.12498">
        <ele>929</ele>
        <time>2017-04-30T14:06:29Z</time>
      </trkpt>
      <trkpt lat="47.8587" lon="7.1249">
        <ele>930</ele>
        <time>2017-04-30T14:06:36Z</time>
      </trkpt>
      <trkpt lat="47.85869" lon="7.12479">
        <ele>930</ele>
        <time>2017-04-30T14:06:42Z</time>
      </trkpt>
      <trkpt lat="47.85878" lon="7.12459">
        <ele>930</ele>
        <time>2017-04-30T14:06:50Z</time>
      </trkpt>
      <trkpt lat="47.8588" lon="7.12449">
        <ele>930</ele>
        <time>2017-04-30T14:06:57Z</time>
      </trkpt>
      <trkpt lat="47.85882" lon="7.12438">
        <ele>930</ele>
        <time>2017-04-30T14:07:02Z</time>
      </trkpt>
      <trkpt lat="47.85885" lon="7.12428">
        <ele>931</ele>
        <time>2017-04-30T14:07:07Z</time>
      </trkpt>
      <trkpt lat="47.8589" lon="7.12419">
        <ele>932</ele>
        <time>2017-04-30T14:07:12Z</time>
      </trkpt>
      <trkpt lat="47.85894" lon="7.12409">
        <ele>927</ele>
        <time>2017-04-30T14:07:17Z</time>
      </trkpt>
      <trkpt lat="47.85896" lon="7.12398">
        <ele>926</ele>
        <time>2017-04-30T14:07:22Z</time>
      </trkpt>
      <trkpt lat="47.85897" lon="7.12386">
        <ele>925</ele>
        <time>2017-04-30T14:07:27Z</time>
      </trkpt>
      <trkpt lat="47.85896" lon="7.12373">
        <ele>924</ele>
        <time>2017-04-30T14:07:34Z</time>
      </trkpt>
      <trkpt lat="47.85896" lon="7.12362">
        <ele>924</ele>
        <time>2017-04-30T14:07:41Z</time>
      </trkpt>
      <trkpt lat="47.85899" lon="7.12352">
        <ele>925</ele>
        <time>2017-04-30T14:07:47Z</time>
      </trkpt>
      <trkpt lat="47.859" lon="7.1234">
        <ele>926</ele>
        <time>2017-04-30T14:07:55Z</time>
      </trkpt>
      <trkpt lat="47.859" lon="7.12328">
        <ele>923</ele>
        <time>2017-04-30T14:08:01Z</time>
      </trkpt>
      <trkpt lat="47.85901" lon="7.12315">
        <ele>921</ele>
        <time>2017-04-30T14:08:08Z</time>
      </trkpt>
      <trkpt lat="47.85901" lon="7.12304">
        <ele>919</ele>
        <time>2017-04-30T14:08:14Z</time>
      </trkpt>
      <trkpt lat="47.85906" lon="7.12294">
        <ele>918</ele>
        <time>2017-04-30T14:08:20Z</time>
      </trkpt>
      <trkpt lat="47.85908" lon="7.12281">
        <ele>918</ele>
        <time>2017-04-30T14:08:25Z</time>
      </trkpt>
      <trkpt lat="47.85917" lon="7.12261">
        <ele>936</ele>
        <time>2017-04-30T14:08:35Z</time>
      </trkpt>
      <trkpt lat="47.85918" lon="7.12249">
        <ele>929</ele>
        <time>2017-04-30T14:08:44Z</time>
      </trkpt>
      <trkpt lat="47.85924" lon="7.1224">
        <ele>933</ele>
        <time>2017-04-30T14:08:49Z</time>
      </trkpt>
      <trkpt lat="47.85926" lon="7.12229">
        <ele>936</ele>
        <time>2017-04-30T14:08:54Z</time>
      </trkpt>
      <trkpt lat="47.85928" lon="7.12219">
        <ele>936</ele>
        <time>2017-04-30T14:09:00Z</time>
      </trkpt>
      <trkpt lat="47.85932" lon="7.1221">
        <ele>937</ele>
        <time>2017-04-30T14:09:06Z</time>
      </trkpt>
      <trkpt lat="47.85936" lon="7.12199">
        <ele>936</ele>
        <time>2017-04-30T14:09:11Z</time>
      </trkpt>
      <trkpt lat="47.85938" lon="7.12189">
        <ele>935</ele>
        <time>2017-04-30T14:09:17Z</time>
      </trkpt>
      <trkpt lat="47.85939" lon="7.12178">
        <ele>934</ele>
        <time>2017-04-30T14:09:24Z</time>
      </trkpt>
      <trkpt lat="47.85943" lon="7.12167">
        <ele>934</ele>
        <time>2017-04-30T14:09:29Z</time>
      </trkpt>
      <trkpt lat="47.85946" lon="7.12157">
        <ele>927</ele>
        <time>2017-04-30T14:09:38Z</time>
      </trkpt>
      <trkpt lat="47.85947" lon="7.12145">
        <ele>927</ele>
        <time>2017-04-30T14:09:45Z</time>
      </trkpt>
      <trkpt lat="47.85948" lon="7.12133">
        <ele>926</ele>
        <time>2017-04-30T14:09:52Z</time>
      </trkpt>
      <trkpt lat="47.85951" lon="7.1212">
        <ele>925</ele>
        <time>2017-04-30T14:09:57Z</time>
      </trkpt>
      <trkpt lat="47.85963" lon="7.12106">
        <ele>927</ele>
        <time>2017-04-30T14:10:07Z</time>
      </trkpt>
      <trkpt lat="47.8596" lon="7.12095">
        <ele>925</ele>
        <time>2017-04-30T14:10:13Z</time>
      </trkpt>
      <trkpt lat="47.85965" lon="7.12087">
        <ele>926</ele>
        <time>2017-04-30T14:10:19Z</time>
      </trkpt>
      <trkpt lat="47.8597" lon="7.12077">
        <ele>918</ele>
        <time>2017-04-30T14:10:25Z</time>
      </trkpt>
      <trkpt lat="47.85977" lon="7.1207">
        <ele>920</ele>
        <time>2017-04-30T14:10:30Z</time>
      </trkpt>
      <trkpt lat="47.85984" lon="7.12064">
        <ele>921</ele>
        <time>2017-04-30T14:10:36Z</time>
      </trkpt>
      <trkpt lat="47.8599" lon="7.12058">
        <ele>921</ele>
        <time>2017-04-30T14:10:41Z</time>
      </trkpt>
      <trkpt lat="47.85996" lon="7.12049">
        <ele>919</ele>
        <time>2017-04-30T14:10:47Z</time>
      </trkpt>
      <trkpt lat="47.85998" lon="7.12038">
        <ele>918</ele>
        <time>2017-04-30T14:10:54Z</time>
      </trkpt>
      <trkpt lat="47.86004" lon="7.1203">
        <ele>930</ele>
        <time>2017-04-30T14:11:00Z</time>
      </trkpt>
      <trkpt lat="47.86008" lon="7.12019">
        <ele>928</ele>
        <time>2017-04-30T14:11:09Z</time>
      </trkpt>
      <trkpt lat="47.86015" lon="7.12">
        <ele>922</ele>
        <time>2017-04-30T14:11:18Z</time>
      </trkpt>
      <trkpt lat="47.86022" lon="7.11998">
        <ele>922</ele>
        <time>2017-04-30T14:11:23Z</time>
      </trkpt>
      <trkpt lat="47.86025" lon="7.11986">
        <ele>921</ele>
        <time>2017-04-30T14:11:29Z</time>
      </trkpt>
      <trkpt lat="47.86037" lon="7.11973">
        <ele>920</ele>
        <time>2017-04-30T14:11:39Z</time>
      </trkpt>
      <trkpt lat="47.86045" lon="7.11973">
        <ele>921</ele>
        <time>2017-04-30T14:11:46Z</time>
      </trkpt>
      <trkpt lat="47.86057" lon="7.11986">
        <ele>922</ele>
        <time>2017-04-30T14:11:57Z</time>
      </trkpt>
      <trkpt lat="47.86063" lon="7.11995">
        <ele>924</ele>
        <time>2017-04-30T14:12:05Z</time>
      </trkpt>
      <trkpt lat="47.8607" lon="7.12018">
        <ele>931</ele>
        <time>2017-04-30T14:12:17Z</time>
      </trkpt>
      <trkpt lat="47.86075" lon="7.12028">
        <ele>931</ele>
        <time>2017-04-30T14:12:23Z</time>
      </trkpt>
      <trkpt lat="47.86077" lon="7.12039">
        <ele>932</ele>
        <time>2017-04-30T14:12:28Z</time>
      </trkpt>
      <trkpt lat="47.8608" lon="7.1205">
        <ele>933</ele>
        <time>2017-04-30T14:12:35Z</time>
      </trkpt>
      <trkpt lat="47.86081" lon="7.1206">
        <ele>934</ele>
        <time>2017-04-30T14:12:41Z</time>
      </trkpt>
      <trkpt lat="47.86086" lon="7.12071">
        <ele>930</ele>
        <time>2017-04-30T14:12:48Z</time>
      </trkpt>
      <trkpt lat="47.86094" lon="7.12076">
        <ele>930</ele>
        <time>2017-04-30T14:12:59Z</time>
      </trkpt>
      <trkpt lat="47.86098" lon="7.12086">
        <ele>936</ele>
        <time>2017-04-30T14:13:05Z</time>
      </trkpt>
      <trkpt lat="47.86103" lon="7.12094">
        <ele>935</ele>
        <time>2017-04-30T14:13:09Z</time>
      </trkpt>
      <trkpt lat="47.86108" lon="7.12105">
        <ele>935</ele>
        <time>2017-04-30T14:13:15Z</time>
      </trkpt>
      <trkpt lat="47.86114" lon="7.12113">
        <ele>935</ele>
        <time>2017-04-30T14:13:21Z</time>
      </trkpt>
      <trkpt lat="47.8612" lon="7.12122">
        <ele>935</ele>
        <time>2017-04-30T14:13:28Z</time>
      </trkpt>
      <trkpt lat="47.86127" lon="7.1213">
        <ele>935</ele>
        <time>2017-04-30T14:13:35Z</time>
      </trkpt>
      <trkpt lat="47.86134" lon="7.12138">
        <ele>935</ele>
        <time>2017-04-30T14:13:41Z</time>
      </trkpt>
      <trkpt lat="47.86137" lon="7.12149">
        <ele>936</ele>
        <time>2017-04-30T14:13:49Z</time>
      </trkpt>
      <trkpt lat="47.86143" lon="7.12158">
        <ele>935</ele>
        <time>2017-04-30T14:13:54Z</time>
      </trkpt>
      <trkpt lat="47.8615" lon="7.12163">
        <ele>934</ele>
        <time>2017-04-30T14:14:02Z</time>
      </trkpt>
      <trkpt lat="47.86157" lon="7.12171">
        <ele>940</ele>
        <time>2017-04-30T14:14:08Z</time>
      </trkpt>
      <trkpt lat="47.86162" lon="7.12178">
        <ele>941</ele>
        <time>2017-04-30T14:14:13Z</time>
      </trkpt>
      <trkpt lat="47.86166" lon="7.12192">
        <ele>946</ele>
        <time>2017-04-30T14:14:20Z</time>
      </trkpt>
      <trkpt lat="47.8617" lon="7.12202">
        <ele>930</ele>
        <time>2017-04-30T14:14:23Z</time>
      </trkpt>
      <trkpt lat="47.86181" lon="7.12216">
        <ele>931</ele>
        <time>2017-04-30T14:14:33Z</time>
      </trkpt>
      <trkpt lat="47.86187" lon="7.12224">
        <ele>932</ele>
        <time>2017-04-30T14:14:41Z</time>
      </trkpt>
      <trkpt lat="47.86193" lon="7.12229">
        <ele>931</ele>
        <time>2017-04-30T14:14:47Z</time>
      </trkpt>
      <trkpt lat="47.862" lon="7.12236">
        <ele>930</ele>
        <time>2017-04-30T14:14:52Z</time>
      </trkpt>
      <trkpt lat="47.86206" lon="7.12242">
        <ele>929</ele>
        <time>2017-04-30T14:15:02Z</time>
      </trkpt>
      <trkpt lat="47.86208" lon="7.12252">
        <ele>941</ele>
        <time>2017-04-30T14:15:08Z</time>
      </trkpt>
      <trkpt lat="47.86216" lon="7.12255">
        <ele>939</ele>
        <time>2017-04-30T14:15:13Z</time>
      </trkpt>
      <trkpt lat="47.86224" lon="7.12259">
        <ele>936</ele>
        <time>2017-04-30T14:15:20Z</time>
      </trkpt>
      <trkpt lat="47.86229" lon="7.12266">
        <ele>935</ele>
        <time>2017-04-30T14:15:27Z</time>
      </trkpt>
      <trkpt lat="47.86235" lon="7.12275">
        <ele>936</ele>
        <time>2017-04-30T14:15:33Z</time>
      </trkpt>
      <trkpt lat="47.86242" lon="7.12278">
        <ele>936</ele>
        <time>2017-04-30T14:15:41Z</time>
      </trkpt>
      <trkpt lat="47.86248" lon="7.12283">
        <ele>937</ele>
        <time>2017-04-30T14:15:49Z</time>
      </trkpt>
      <trkpt lat="47.86255" lon="7.12288">
        <ele>917</ele>
        <time>2017-04-30T14:16:04Z</time>
      </trkpt>
      <trkpt lat="47.86263" lon="7.1229">
        <ele>917</ele>
        <time>2017-04-30T14:16:12Z</time>
      </trkpt>
      <trkpt lat="47.86271" lon="7.12292">
        <ele>916</ele>
        <time>2017-04-30T14:16:18Z</time>
      </trkpt>
      <trkpt lat="47.86277" lon="7.12299">
        <ele>917</ele>
        <time>2017-04-30T14:16:27Z</time>
      </trkpt>
      <trkpt lat="47.86285" lon="7.12301">
        <ele>916</ele>
        <time>2017-04-30T14:16:34Z</time>
      </trkpt>
      <trkpt lat="47.86292" lon="7.12302">
        <ele>914</ele>
        <time>2017-04-30T14:16:42Z</time>
      </trkpt>
      <trkpt lat="47.86299" lon="7.12304">
        <ele>913</ele>
        <time>2017-04-30T14:16:50Z</time>
      </trkpt>
      <trkpt lat="47.86307" lon="7.12306">
        <ele>912</ele>
        <time>2017-04-30T14:16:58Z</time>
      </trkpt>
      <trkpt lat="47.86314" lon="7.12308">
        <ele>911</ele>
        <time>2017-04-30T14:17:08Z</time>
      </trkpt>
      <trkpt lat="47.86322" lon="7.12311">
        <ele>910</ele>
        <time>2017-04-30T14:17:16Z</time>
      </trkpt>
      <trkpt lat="47.86329" lon="7.12314">
        <ele>910</ele>
        <time>2017-04-30T14:17:28Z</time>
      </trkpt>
      <trkpt lat="47.86336" lon="7.1232">
        <ele>899</ele>
        <time>2017-04-30T14:17:37Z</time>
      </trkpt>
      <trkpt lat="47.86343" lon="7.12319">
        <ele>897</ele>
        <time>2017-04-30T14:25:02Z</time>
      </trkpt>
      <trkpt lat="47.86351" lon="7.1232">
        <ele>895</ele>
        <time>2017-04-30T14:25:13Z</time>
      </trkpt>
      <trkpt lat="47.86358" lon="7.12321">
        <ele>894</ele>
        <time>2017-04-30T14:25:20Z</time>
      </trkpt>
      <trkpt lat="47.86366" lon="7.12325">
        <ele>892</ele>
        <time>2017-04-30T14:25:27Z</time>
      </trkpt>
      <trkpt lat="47.86373" lon="7.12331">
        <ele>891</ele>
        <time>2017-04-30T14:25:34Z</time>
      </trkpt>
      <trkpt lat="47.86379" lon="7.12338">
        <ele>902</ele>
        <time>2017-04-30T14:25:42Z</time>
      </trkpt>
      <trkpt lat="47.86385" lon="7.12346">
        <ele>901</ele>
        <time>2017-04-30T14:25:50Z</time>
      </trkpt>
      <trkpt lat="47.8639" lon="7.12355">
        <ele>901</ele>
        <time>2017-04-30T14:25:57Z</time>
      </trkpt>
      <trkpt lat="47.86396" lon="7.12364">
        <ele>901</ele>
        <time>2017-04-30T14:26:05Z</time>
      </trkpt>
      <trkpt lat="47.86402" lon="7.12371">
        <ele>902</ele>
        <time>2017-04-30T14:26:12Z</time>
      </trkpt>
      <trkpt lat="47.86408" lon="7.12378">
        <ele>902</ele>
        <time>2017-04-30T14:26:19Z</time>
      </trkpt>
      <trkpt lat="47.86413" lon="7.12387">
        <ele>903</ele>
        <time>2017-04-30T14:26:27Z</time>
      </trkpt>
      <trkpt lat="47.86417" lon="7.12396">
        <ele>893</ele>
        <time>2017-04-30T14:26:33Z</time>
      </trkpt>
      <trkpt lat="47.86422" lon="7.12403">
        <ele>895</ele>
        <time>2017-04-30T14:26:40Z</time>
      </trkpt>
      <trkpt lat="47.86428" lon="7.1241">
        <ele>896</ele>
        <time>2017-04-30T14:26:47Z</time>
      </trkpt>
      <trkpt lat="47.86433" lon="7.12417">
        <ele>903</ele>
        <time>2017-04-30T14:26:55Z</time>
      </trkpt>
      <trkpt lat="47.8644" lon="7.12422">
        <ele>903</ele>
        <time>2017-04-30T14:27:02Z</time>
      </trkpt>
      <trkpt lat="47.86447" lon="7.12427">
        <ele>903</ele>
        <time>2017-04-30T14:27:08Z</time>
      </trkpt>
      <trkpt lat="47.86454" lon="7.12431">
        <ele>902</ele>
        <time>2017-04-30T14:27:14Z</time>
      </trkpt>
      <trkpt lat="47.86462" lon="7.12433">
        <ele>901</ele>
        <time>2017-04-30T14:27:20Z</time>
      </trkpt>
      <trkpt lat="47.86469" lon="7.12434">
        <ele>900</ele>
        <time>2017-04-30T14:27:26Z</time>
      </trkpt>
      <trkpt lat="47.86477" lon="7.12435">
        <ele>899</ele>
        <time>2017-04-30T14:27:32Z</time>
      </trkpt>
      <trkpt lat="47.86485" lon="7.12436">
        <ele>898</ele>
        <time>2017-04-30T14:27:38Z</time>
      </trkpt>
      <trkpt lat="47.86492" lon="7.12436">
        <ele>896</ele>
        <time>2017-04-30T14:27:44Z</time>
      </trkpt>
      <trkpt lat="47.865" lon="7.12437">
        <ele>896</ele>
        <time>2017-04-30T14:27:51Z</time>
      </trkpt>
      <trkpt lat="47.86507" lon="7.12439">
        <ele>890</ele>
        <time>2017-04-30T14:27:57Z</time>
      </trkpt>
      <trkpt lat="47.86515" lon="7.12442">
        <ele>891</ele>
        <time>2017-04-30T14:28:03Z</time>
      </trkpt>
      <trkpt lat="47.86522" lon="7.12442">
        <ele>891</ele>
        <time>2017-04-30T14:28:09Z</time>
      </trkpt>
      <trkpt lat="47.8653" lon="7.12442">
        <ele>891</ele>
        <time>2017-04-30T14:28:15Z</time>
      </trkpt>
      <trkpt lat="47.86538" lon="7.12445">
        <ele>891</ele>
        <time>2017-04-30T14:28:22Z</time>
      </trkpt>
      <trkpt lat="47.86546" lon="7.12448">
        <ele>891</ele>
        <time>2017-04-30T14:28:28Z</time>
      </trkpt>
      <trkpt lat="47.86553" lon="7.12451">
        <ele>891</ele>
        <time>2017-04-30T14:28:35Z</time>
      </trkpt>
      <trkpt lat="47.86561" lon="7.12453">
        <ele>890</ele>
        <time>2017-04-30T14:28:41Z</time>
      </trkpt>
      <trkpt lat="47.86568" lon="7.12454">
        <ele>890</ele>
        <time>2017-04-30T14:28:47Z</time>
      </trkpt>
      <trkpt lat="47.86576" lon="7.12452">
        <ele>890</ele>
        <time>2017-04-30T14:28:53Z</time>
      </trkpt>
      <trkpt lat="47.86584" lon="7.1245">
        <ele>884</ele>
        <time>2017-04-30T14:29:00Z</time>
      </trkpt>
      <trkpt lat="47.86592" lon="7.12446">
        <ele>883</ele>
        <time>2017-04-30T14:29:06Z</time>
      </trkpt>
      <trkpt lat="47.866" lon="7.12444">
        <ele>883</ele>
        <time>2017-04-30T14:29:12Z</time>
      </trkpt>
      <trkpt lat="47.86608" lon="7.12443">
        <ele>883</ele>
        <time>2017-04-30T14:29:18Z</time>
      </trkpt>
      <trkpt lat="47.86615" lon="7.12441">
        <ele>882</ele>
        <time>2017-04-30T14:29:24Z</time>
      </trkpt>
      <trkpt lat="47.86622" lon="7.12438">
        <ele>882</ele>
        <time>2017-04-30T14:29:31Z</time>
      </trkpt>
      <trkpt lat="47.8663" lon="7.12434">
        <ele>881</ele>
        <time>2017-04-30T14:29:38Z</time>
      </trkpt>
      <trkpt lat="47.86638" lon="7.1243">
        <ele>881</ele>
        <time>2017-04-30T14:29:45Z</time>
      </trkpt>
      <trkpt lat="47.86645" lon="7.12426">
        <ele>880</ele>
        <time>2017-04-30T14:29:52Z</time>
      </trkpt>
      <trkpt lat="47.86652" lon="7.12427">
        <ele>879</ele>
        <time>2017-04-30T14:30:00Z</time>
      </trkpt>
      <trkpt lat="47.86661" lon="7.12427">
        <ele>878</ele>
        <time>2017-04-30T14:30:08Z</time>
      </trkpt>
      <trkpt lat="47.86666" lon="7.12419">
        <ele>877</ele>
        <time>2017-04-30T14:30:16Z</time>
      </trkpt>
      <trkpt lat="47.86674" lon="7.12416">
        <ele>874</ele>
        <time>2017-04-30T14:30:23Z</time>
      </trkpt>
      <trkpt lat="47.86681" lon="7.12408">
        <ele>872</ele>
        <time>2017-04-30T14:30:30Z</time>
      </trkpt>
      <trkpt lat="47.86687" lon="7.12403">
        <ele>870</ele>
        <time>2017-04-30T14:30:38Z</time>
      </trkpt>
      <trkpt lat="47.86694" lon="7.12396">
        <ele>869</ele>
        <time>2017-04-30T14:30:45Z</time>
      </trkpt>
      <trkpt lat="47.867" lon="7.12388">
        <ele>868</ele>
        <time>2017-04-30T14:30:52Z</time>
      </trkpt>
      <trkpt lat="47.86706" lon="7.12382">
        <ele>868</ele>
        <time>2017-04-30T14:30:58Z</time>
      </trkpt>
      <trkpt lat="47.86712" lon="7.12376">
        <ele>867</ele>
        <time>2017-04-30T14:31:04Z</time>
      </trkpt>
      <trkpt lat="47.86719" lon="7.1237">
        <ele>867</ele>
        <time>2017-04-30T14:31:12Z</time>
      </trkpt>
      <trkpt lat="47.86726" lon="7.12365">
        <ele>866</ele>
        <time>2017-04-30T14:34:18Z</time>
      </trkpt>
      <trkpt lat="47.86734" lon="7.1236">
        <ele>866</ele>
        <time>2017-04-30T14:34:25Z</time>
      </trkpt>
      <trkpt lat="47.8674" lon="7.12355">
        <ele>866</ele>
        <time>2017-04-30T14:34:31Z</time>
      </trkpt>
      <trkpt lat="47.86747" lon="7.12351">
        <ele>866</ele>
        <time>2017-04-30T14:34:37Z</time>
      </trkpt>
      <trkpt lat="47.86754" lon="7.12347">
        <ele>864</ele>
        <time>2017-04-30T14:34:43Z</time>
      </trkpt>
      <trkpt lat="47.86761" lon="7.12342">
        <ele>864</ele>
        <time>2017-04-30T14:34:49Z</time>
      </trkpt>
      <trkpt lat="47.86769" lon="7.12338">
        <ele>863</ele>
        <time>2017-04-30T14:34:56Z</time>
      </trkpt>
      <trkpt lat="47.86777" lon="7.12338">
        <ele>863</ele>
        <time>2017-04-30T14:35:03Z</time>
      </trkpt>
      <trkpt lat="47.86785" lon="7.12333">
        <ele>862</ele>
        <time>2017-04-30T14:35:10Z</time>
      </trkpt>
      <trkpt lat="47.86793" lon="7.12332">
        <ele>862</ele>
        <time>2017-04-30T14:35:17Z</time>
      </trkpt>
      <trkpt lat="47.86801" lon="7.12329">
        <ele>862</ele>
        <time>2017-04-30T14:35:23Z</time>
      </trkpt>
      <trkpt lat="47.868" lon="7.12341">
        <ele>862</ele>
        <time>2017-04-30T14:35:39Z</time>
      </trkpt>
      <trkpt lat="47.86797" lon="7.12351">
        <ele>862</ele>
        <time>2017-04-30T14:35:46Z</time>
      </trkpt>
      <trkpt lat="47.86795" lon="7.12362">
        <ele>862</ele>
        <time>2017-04-30T14:35:54Z</time>
      </trkpt>
      <trkpt lat="47.86789" lon="7.12372">
        <ele>862</ele>
        <time>2017-04-30T14:36:00Z</time>
      </trkpt>
      <trkpt lat="47.86784" lon="7.12381">
        <ele>862</ele>
        <time>2017-04-30T14:36:06Z</time>
      </trkpt>
      <trkpt lat="47.8678" lon="7.1239">
        <ele>862</ele>
        <time>2017-04-30T14:36:11Z</time>
      </trkpt>
      <trkpt lat="47.86777" lon="7.12401">
        <ele>862</ele>
        <time>2017-04-30T14:36:16Z</time>
      </trkpt>
      <trkpt lat="47.86778" lon="7.12412">
        <ele>862</ele>
        <time>2017-04-30T14:36:22Z</time>
      </trkpt>
      <trkpt lat="47.86775" lon="7.12423">
        <ele>858</ele>
        <time>2017-04-30T14:36:29Z</time>
      </trkpt>
      <trkpt lat="47.86768" lon="7.12428">
        <ele>858</ele>
        <time>2017-04-30T14:36:34Z</time>
      </trkpt>
      <trkpt lat="47.8676" lon="7.12434">
        <ele>859</ele>
        <time>2017-04-30T14:36:40Z</time>
      </trkpt>
      <trkpt lat="47.86745" lon="7.12446">
        <ele>866</ele>
        <time>2017-04-30T14:36:50Z</time>
      </trkpt>
      <trkpt lat="47.86738" lon="7.12451">
        <ele>866</ele>
        <time>2017-04-30T14:36:56Z</time>
      </trkpt>
      <trkpt lat="47.86724" lon="7.12458">
        <ele>867</ele>
        <time>2017-04-30T14:37:06Z</time>
      </trkpt>
      <trkpt lat="47.86721" lon="7.12468">
        <ele>867</ele>
        <time>2017-04-30T14:37:12Z</time>
      </trkpt>
      <trkpt lat="47.86721" lon="7.1248">
        <ele>866</ele>
        <time>2017-04-30T14:37:18Z</time>
      </trkpt>
      <trkpt lat="47.86717" lon="7.12489">
        <ele>867</ele>
        <time>2017-04-30T14:37:23Z</time>
      </trkpt>
      <trkpt lat="47.86709" lon="7.12507">
        <ele>864</ele>
        <time>2017-04-30T14:37:33Z</time>
      </trkpt>
      <trkpt lat="47.867" lon="7.12524">
        <ele>865</ele>
        <time>2017-04-30T14:37:42Z</time>
      </trkpt>
      <trkpt lat="47.86694" lon="7.12534">
        <ele>866</ele>
        <time>2017-04-30T14:37:48Z</time>
      </trkpt>
      <trkpt lat="47.86689" lon="7.12543">
        <ele>866</ele>
        <time>2017-04-30T14:37:53Z</time>
      </trkpt>
      <trkpt lat="47.86687" lon="7.12554">
        <ele>866</ele>
        <time>2017-04-30T14:38:00Z</time>
      </trkpt>
      <trkpt lat="47.86685" lon="7.12565">
        <ele>867</ele>
        <time>2017-04-30T14:38:07Z</time>
      </trkpt>
      <trkpt lat="47.86681" lon="7.12574">
        <ele>869</ele>
        <time>2017-04-30T14:38:14Z</time>
      </trkpt>
      <trkpt lat="47.86675" lon="7.12583">
        <ele>871</ele>
        <time>2017-04-30T14:38:19Z</time>
      </trkpt>
      <trkpt lat="47.8667" lon="7.12596">
        <ele>865</ele>
        <time>2017-04-30T14:38:24Z</time>
      </trkpt>
      <trkpt lat="47.86664" lon="7.12616">
        <ele>879</ele>
        <time>2017-04-30T14:38:30Z</time>
      </trkpt>
      <trkpt lat="47.86657" lon="7.12625">
        <ele>878</ele>
        <time>2017-04-30T14:38:37Z</time>
      </trkpt>
      <trkpt lat="47.86646" lon="7.12644">
        <ele>877</ele>
        <time>2017-04-30T14:38:47Z</time>
      </trkpt>
      <trkpt lat="47.86643" lon="7.12657">
        <ele>876</ele>
        <time>2017-04-30T14:38:53Z</time>
      </trkpt>
      <trkpt lat="47.86638" lon="7.12666">
        <ele>877</ele>
        <time>2017-04-30T14:38:59Z</time>
      </trkpt>
      <trkpt lat="47.86638" lon="7.12679">
        <ele>866</ele>
        <time>2017-04-30T14:39:07Z</time>
      </trkpt>
      <trkpt lat="47.86635" lon="7.12689">
        <ele>866</ele>
        <time>2017-04-30T14:39:13Z</time>
      </trkpt>
      <trkpt lat="47.86633" lon="7.12701">
        <ele>865</ele>
        <time>2017-04-30T14:39:19Z</time>
      </trkpt>
      <trkpt lat="47.8663" lon="7.12712">
        <ele>864</ele>
        <time>2017-04-30T14:39:26Z</time>
      </trkpt>
      <trkpt lat="47.86624" lon="7.12719">
        <ele>864</ele>
        <time>2017-04-30T14:39:31Z</time>
      </trkpt>
      <trkpt lat="47.86619" lon="7.12727">
        <ele>863</ele>
        <time>2017-04-30T14:39:37Z</time>
      </trkpt>
      <trkpt lat="47.86612" lon="7.12737">
        <ele>863</ele>
        <time>2017-04-30T14:39:43Z</time>
      </trkpt>
      <trkpt lat="47.86605" lon="7.12741">
        <ele>863</ele>
        <time>2017-04-30T14:39:48Z</time>
      </trkpt>
      <trkpt lat="47.8659" lon="7.12748">
        <ele>863</ele>
        <time>2017-04-30T14:39:57Z</time>
      </trkpt>
      <trkpt lat="47.86576" lon="7.12754">
        <ele>865</ele>
        <time>2017-04-30T14:40:04Z</time>
      </trkpt>
      <trkpt lat="47.86567" lon="7.12758">
        <ele>868</ele>
        <time>2017-04-30T14:40:12Z</time>
      </trkpt>
      <trkpt lat="47.86559" lon="7.12762">
        <ele>871</ele>
        <time>2017-04-30T14:40:19Z</time>
      </trkpt>
      <trkpt lat="47.86553" lon="7.12768">
        <ele>872</ele>
        <time>2017-04-30T14:40:25Z</time>
      </trkpt>
      <trkpt lat="47.86548" lon="7.12776">
        <ele>873</ele>
        <time>2017-04-30T14:40:34Z</time>
      </trkpt>
      <trkpt lat="47.86543" lon="7.12786">
        <ele>874</ele>
        <time>2017-04-30T14:40:43Z</time>
      </trkpt>
      <trkpt lat="47.86536" lon="7.12792">
        <ele>875</ele>
        <time>2017-04-30T14:40:49Z</time>
      </trkpt>
      <trkpt lat="47.86521" lon="7.12793">
        <ele>878</ele>
        <time>2017-04-30T14:40:58Z</time>
      </trkpt>
      <trkpt lat="47.86514" lon="7.12798">
        <ele>879</ele>
        <time>2017-04-30T14:41:04Z</time>
      </trkpt>
      <trkpt lat="47.86509" lon="7.12808">
        <ele>880</ele>
        <time>2017-04-30T14:41:14Z</time>
      </trkpt>
      <trkpt lat="47.86515" lon="7.12815">
        <ele>879</ele>
        <time>2017-04-30T14:41:20Z</time>
      </trkpt>
      <trkpt lat="47.8652" lon="7.12826">
        <ele>879</ele>
        <time>2017-04-30T14:41:26Z</time>
      </trkpt>
      <trkpt lat="47.86523" lon="7.12837">
        <ele>874</ele>
        <time>2017-04-30T14:41:32Z</time>
      </trkpt>
      <trkpt lat="47.86521" lon="7.12849">
        <ele>874</ele>
        <time>2017-04-30T14:41:37Z</time>
      </trkpt>
      <trkpt lat="47.86519" lon="7.1286">
        <ele>873</ele>
        <time>2017-04-30T14:41:44Z</time>
      </trkpt>
      <trkpt lat="47.86523" lon="7.1287">
        <ele>871</ele>
        <time>2017-04-30T14:41:52Z</time>
      </trkpt>
      <trkpt lat="47.86531" lon="7.1287">
        <ele>870</ele>
        <time>2017-04-30T14:42:04Z</time>
      </trkpt>
      <trkpt lat="47.86529" lon="7.12883">
        <ele>870</ele>
        <time>2017-04-30T14:42:09Z</time>
      </trkpt>
      <trkpt lat="47.86532" lon="7.12907">
        <ele>870</ele>
        <time>2017-04-30T14:42:16Z</time>
      </trkpt>
      <trkpt lat="47.86531" lon="7.12919">
        <ele>868</ele>
        <time>2017-04-30T14:42:22Z</time>
      </trkpt>
      <trkpt lat="47.86528" lon="7.12942">
        <ele>867</ele>
        <time>2017-04-30T14:42:32Z</time>
      </trkpt>
      <trkpt lat="47.86523" lon="7.12951">
        <ele>867</ele>
        <time>2017-04-30T14:42:41Z</time>
      </trkpt>
      <trkpt lat="47.86517" lon="7.12959">
        <ele>868</ele>
        <time>2017-04-30T14:42:46Z</time>
      </trkpt>
      <trkpt lat="47.86513" lon="7.12969">
        <ele>869</ele>
        <time>2017-04-30T14:42:52Z</time>
      </trkpt>
      <trkpt lat="47.86507" lon="7.12977">
        <ele>870</ele>
        <time>2017-04-30T14:42:58Z</time>
      </trkpt>
      <trkpt lat="47.86494" lon="7.12987">
        <ele>886</ele>
        <time>2017-04-30T14:43:07Z</time>
      </trkpt>
      <trkpt lat="47.86489" lon="7.12997">
        <ele>885</ele>
        <time>2017-04-30T14:43:12Z</time>
      </trkpt>
      <trkpt lat="47.86482" lon="7.13">
        <ele>888</ele>
        <time>2017-04-30T14:43:18Z</time>
      </trkpt>
      <trkpt lat="47.86472" lon="7.13005">
        <ele>886</ele>
        <time>2017-04-30T14:43:25Z</time>
      </trkpt>
      <trkpt lat="47.86469" lon="7.13015">
        <ele>886</ele>
        <time>2017-04-30T14:43:33Z</time>
      </trkpt>
      <trkpt lat="47.86463" lon="7.13025">
        <ele>887</ele>
        <time>2017-04-30T14:43:41Z</time>
      </trkpt>
      <trkpt lat="47.86461" lon="7.13038">
        <ele>887</ele>
        <time>2017-04-30T14:43:50Z</time>
      </trkpt>
      <trkpt lat="47.86454" lon="7.13046">
        <ele>888</ele>
        <time>2017-04-30T14:43:54Z</time>
      </trkpt>
      <trkpt lat="47.86452" lon="7.13056">
        <ele>888</ele>
        <time>2017-04-30T14:43:59Z</time>
      </trkpt>
      <trkpt lat="47.86453" lon="7.13068">
        <ele>887</ele>
        <time>2017-04-30T14:44:06Z</time>
      </trkpt>
      <trkpt lat="47.86457" lon="7.13078">
        <ele>886</ele>
        <time>2017-04-30T14:44:11Z</time>
      </trkpt>
      <trkpt lat="47.86455" lon="7.13089">
        <ele>881</ele>
        <time>2017-04-30T14:44:19Z</time>
      </trkpt>
      <trkpt lat="47.86458" lon="7.13101">
        <ele>879</ele>
        <time>2017-04-30T14:44:25Z</time>
      </trkpt>
      <trkpt lat="47.86461" lon="7.13112">
        <ele>878</ele>
        <time>2017-04-30T14:44:30Z</time>
      </trkpt>
      <trkpt lat="47.86457" lon="7.13123">
        <ele>879</ele>
        <time>2017-04-30T14:44:34Z</time>
      </trkpt>
      <trkpt lat="47.86451" lon="7.13132">
        <ele>879</ele>
        <time>2017-04-30T14:44:39Z</time>
      </trkpt>
      <trkpt lat="47.8645" lon="7.13144">
        <ele>880</ele>
        <time>2017-04-30T14:44:45Z</time>
      </trkpt>
      <trkpt lat="47.86445" lon="7.13153">
        <ele>881</ele>
        <time>2017-04-30T14:44:49Z</time>
      </trkpt>
      <trkpt lat="47.86444" lon="7.13165">
        <ele>881</ele>
        <time>2017-04-30T14:44:56Z</time>
      </trkpt>
      <trkpt lat="47.86443" lon="7.13178">
        <ele>874</ele>
        <time>2017-04-30T14:45:03Z</time>
      </trkpt>
      <trkpt lat="47.86441" lon="7.1319">
        <ele>873</ele>
        <time>2017-04-30T14:45:09Z</time>
      </trkpt>
      <trkpt lat="47.86444" lon="7.132">
        <ele>871</ele>
        <time>2017-04-30T14:45:14Z</time>
      </trkpt>
      <trkpt lat="47.86437" lon="7.13208">
        <ele>871</ele>
        <time>2017-04-30T14:45:18Z</time>
      </trkpt>
      <trkpt lat="47.86432" lon="7.13218">
        <ele>871</ele>
        <time>2017-04-30T14:45:23Z</time>
      </trkpt>
      <trkpt lat="47.86425" lon="7.13226">
        <ele>871</ele>
        <time>2017-04-30T14:45:29Z</time>
      </trkpt>
      <trkpt lat="47.86422" lon="7.13237">
        <ele>872</ele>
        <time>2017-04-30T14:45:34Z</time>
      </trkpt>
      <trkpt lat="47.86417" lon="7.13245">
        <ele>874</ele>
        <time>2017-04-30T14:45:40Z</time>
      </trkpt>
      <trkpt lat="47.86411" lon="7.13254">
        <ele>876</ele>
        <time>2017-04-30T14:45:45Z</time>
      </trkpt>
      <trkpt lat="47.86404" lon="7.13261">
        <ele>875</ele>
        <time>2017-04-30T14:45:50Z</time>
      </trkpt>
      <trkpt lat="47.86399" lon="7.1327">
        <ele>875</ele>
        <time>2017-04-30T14:45:56Z</time>
      </trkpt>
      <trkpt lat="47.8639" lon="7.13273">
        <ele>875</ele>
        <time>2017-04-30T14:46:01Z</time>
      </trkpt>
      <trkpt lat="47.86382" lon="7.13277">
        <ele>876</ele>
        <time>2017-04-30T14:46:07Z</time>
      </trkpt>
      <trkpt lat="47.86375" lon="7.13281">
        <ele>876</ele>
        <time>2017-04-30T14:46:13Z</time>
      </trkpt>
      <trkpt lat="47.86369" lon="7.13288">
        <ele>876</ele>
        <time>2017-04-30T14:46:18Z</time>
      </trkpt>
      <trkpt lat="47.86363" lon="7.13297">
        <ele>875</ele>
        <time>2017-04-30T14:46:23Z</time>
      </trkpt>
      <trkpt lat="47.86366" lon="7.13308">
        <ele>873</ele>
        <time>2017-04-30T14:46:29Z</time>
      </trkpt>
      <trkpt lat="47.86359" lon="7.13316">
        <ele>873</ele>
        <time>2017-04-30T14:46:34Z</time>
      </trkpt>
      <trkpt lat="47.86356" lon="7.13327">
        <ele>872</ele>
        <time>2017-04-30T14:46:40Z</time>
      </trkpt>
      <trkpt lat="47.86349" lon="7.13333">
        <ele>872</ele>
        <time>2017-04-30T14:46:46Z</time>
      </trkpt>
      <trkpt lat="47.86342" lon="7.13339">
        <ele>863</ele>
        <time>2017-04-30T14:46:51Z</time>
      </trkpt>
      <trkpt lat="47.86335" lon="7.13348">
        <ele>861</ele>
        <time>2017-04-30T14:46:57Z</time>
      </trkpt>
      <trkpt lat="47.8632" lon="7.13357">
        <ele>862</ele>
        <time>2017-04-30T14:47:05Z</time>
      </trkpt>
      <trkpt lat="47.86312" lon="7.1336">
        <ele>861</ele>
        <time>2017-04-30T14:47:10Z</time>
      </trkpt>
      <trkpt lat="47.86304" lon="7.13362">
        <ele>860</ele>
        <time>2017-04-30T14:47:17Z</time>
      </trkpt>
      <trkpt lat="47.86295" lon="7.13361">
        <ele>860</ele>
        <time>2017-04-30T14:47:23Z</time>
      </trkpt>
      <trkpt lat="47.86286" lon="7.13365">
        <ele>860</ele>
        <time>2017-04-30T14:47:30Z</time>
      </trkpt>
      <trkpt lat="47.86277" lon="7.13363">
        <ele>861</ele>
        <time>2017-04-30T14:47:36Z</time>
      </trkpt>
      <trkpt lat="47.86269" lon="7.13361">
        <ele>862</ele>
        <time>2017-04-30T14:47:41Z</time>
      </trkpt>
      <trkpt lat="47.86262" lon="7.13356">
        <ele>864</ele>
        <time>2017-04-30T14:47:47Z</time>
      </trkpt>
      <trkpt lat="47.86255" lon="7.13351">
        <ele>868</ele>
        <time>2017-04-30T14:47:55Z</time>
      </trkpt>
      <trkpt lat="47.86247" lon="7.13343">
        <ele>871</ele>
        <time>2017-04-30T14:48:00Z</time>
      </trkpt>
      <trkpt lat="47.86241" lon="7.13336">
        <ele>872</ele>
        <time>2017-04-30T14:48:06Z</time>
      </trkpt>
      <trkpt lat="47.86234" lon="7.13331">
        <ele>884</ele>
        <time>2017-04-30T14:48:11Z</time>
      </trkpt>
      <trkpt lat="47.86226" lon="7.13331">
        <ele>885</ele>
        <time>2017-04-30T14:48:17Z</time>
      </trkpt>
      <trkpt lat="47.86211" lon="7.13329">
        <ele>885</ele>
        <time>2017-04-30T14:48:30Z</time>
      </trkpt>
      <trkpt lat="47.86205" lon="7.13322">
        <ele>885</ele>
        <time>2017-04-30T14:48:35Z</time>
      </trkpt>
      <trkpt lat="47.86195" lon="7.13322">
        <ele>883</ele>
        <time>2017-04-30T14:48:41Z</time>
      </trkpt>
      <trkpt lat="47.86186" lon="7.13322">
        <ele>881</ele>
        <time>2017-04-30T14:48:47Z</time>
      </trkpt>
      <trkpt lat="47.8617" lon="7.13324">
        <ele>876</ele>
        <time>2017-04-30T14:48:57Z</time>
      </trkpt>
      <trkpt lat="47.86163" lon="7.13322">
        <ele>878</ele>
        <time>2017-04-30T14:49:04Z</time>
      </trkpt>
      <trkpt lat="47.86146" lon="7.13318">
        <ele>883</ele>
        <time>2017-04-30T14:49:13Z</time>
      </trkpt>
      <trkpt lat="47.86138" lon="7.13316">
        <ele>885</ele>
        <time>2017-04-30T14:49:18Z</time>
      </trkpt>
      <trkpt lat="47.8613" lon="7.13311">
        <ele>887</ele>
        <time>2017-04-30T14:49:23Z</time>
      </trkpt>
      <trkpt lat="47.86122" lon="7.13312">
        <ele>888</ele>
        <time>2017-04-30T14:49:28Z</time>
      </trkpt>
      <trkpt lat="47.86115" lon="7.13316">
        <ele>888</ele>
        <time>2017-04-30T14:49:36Z</time>
      </trkpt>
      <trkpt lat="47.86107" lon="7.13315">
        <ele>888</ele>
        <time>2017-04-30T14:49:42Z</time>
      </trkpt>
      <trkpt lat="47.861" lon="7.1331">
        <ele>889</ele>
        <time>2017-04-30T14:49:50Z</time>
      </trkpt>
      <trkpt lat="47.86094" lon="7.13306">
        <ele>889</ele>
        <time>2017-04-30T14:49:57Z</time>
      </trkpt>
      <trkpt lat="47.86085" lon="7.13306">
        <ele>890</ele>
        <time>2017-04-30T14:50:11Z</time>
      </trkpt>
      <trkpt lat="47.86081" lon="7.13318">
        <ele>900</ele>
        <time>2017-04-30T14:50:23Z</time>
      </trkpt>
      <trkpt lat="47.8608" lon="7.13328">
        <ele>891</ele>
        <time>2017-04-30T14:50:34Z</time>
      </trkpt>
      <trkpt lat="47.86084" lon="7.1334">
        <ele>879</ele>
        <time>2017-04-30T14:50:42Z</time>
      </trkpt>
      <trkpt lat="47.86081" lon="7.1335">
        <ele>889</ele>
        <time>2017-04-30T14:50:53Z</time>
      </trkpt>
      <trkpt lat="47.86077" lon="7.1336">
        <ele>890</ele>
        <time>2017-04-30T14:51:00Z</time>
      </trkpt>
      <trkpt lat="47.8607" lon="7.13366">
        <ele>891</ele>
        <time>2017-04-30T14:51:05Z</time>
      </trkpt>
      <trkpt lat="47.86064" lon="7.13373">
        <ele>891</ele>
        <time>2017-04-30T14:51:10Z</time>
      </trkpt>
      <trkpt lat="47.86061" lon="7.13384">
        <ele>890</ele>
        <time>2017-04-30T14:51:15Z</time>
      </trkpt>
      <trkpt lat="47.86061" lon="7.13395">
        <ele>888</ele>
        <time>2017-04-30T14:51:21Z</time>
      </trkpt>
      <trkpt lat="47.86057" lon="7.13404">
        <ele>887</ele>
        <time>2017-04-30T14:51:26Z</time>
      </trkpt>
      <trkpt lat="47.86053" lon="7.13413">
        <ele>888</ele>
        <time>2017-04-30T14:51:33Z</time>
      </trkpt>
      <trkpt lat="47.86051" lon="7.13424">
        <ele>878</ele>
        <time>2017-04-30T14:51:42Z</time>
      </trkpt>
      <trkpt lat="47.86047" lon="7.13434">
        <ele>880</ele>
        <time>2017-04-30T14:51:48Z</time>
      </trkpt>
      <trkpt lat="47.86042" lon="7.13444">
        <ele>881</ele>
        <time>2017-04-30T14:51:53Z</time>
      </trkpt>
      <trkpt lat="47.8604" lon="7.13455">
        <ele>881</ele>
        <time>2017-04-30T14:51:59Z</time>
      </trkpt>
      <trkpt lat="47.86036" lon="7.13467">
        <ele>881</ele>
        <time>2017-04-30T14:52:05Z</time>
      </trkpt>
      <trkpt lat="47.86031" lon="7.13478">
        <ele>883</ele>
        <time>2017-04-30T14:52:11Z</time>
      </trkpt>
      <trkpt lat="47.86033" lon="7.13488">
        <ele>882</ele>
        <time>2017-04-30T14:52:18Z</time>
      </trkpt>
      <trkpt lat="47.8603" lon="7.13498">
        <ele>883</ele>
        <time>2017-04-30T14:52:25Z</time>
      </trkpt>
      <trkpt lat="47.86027" lon="7.1351">
        <ele>877</ele>
        <time>2017-04-30T14:52:32Z</time>
      </trkpt>
      <trkpt lat="47.86029" lon="7.13521">
        <ele>875</ele>
        <time>2017-04-30T14:52:40Z</time>
      </trkpt>
      <trkpt lat="47.86033" lon="7.13534">
        <ele>872</ele>
        <time>2017-04-30T14:52:47Z</time>
      </trkpt>
      <trkpt lat="47.86033" lon="7.13547">
        <ele>871</ele>
        <time>2017-04-30T14:52:54Z</time>
      </trkpt>
      <trkpt lat="47.8603" lon="7.13557">
        <ele>872</ele>
        <time>2017-04-30T14:52:59Z</time>
      </trkpt>
      <trkpt lat="47.86026" lon="7.13575">
        <ele>875</ele>
        <time>2017-04-30T14:53:14Z</time>
      </trkpt>
      <trkpt lat="47.86031" lon="7.13585">
        <ele>871</ele>
        <time>2017-04-30T14:53:23Z</time>
      </trkpt>
      <trkpt lat="47.86034" lon="7.13595">
        <ele>870</ele>
        <time>2017-04-30T14:53:29Z</time>
      </trkpt>
      <trkpt lat="47.86034" lon="7.13607">
        <ele>869</ele>
        <time>2017-04-30T14:53:33Z</time>
      </trkpt>
      <trkpt lat="47.86035" lon="7.1362">
        <ele>869</ele>
        <time>2017-04-30T14:53:40Z</time>
      </trkpt>
      <trkpt lat="47.86036" lon="7.13632">
        <ele>869</ele>
        <time>2017-04-30T14:53:45Z</time>
      </trkpt>
      <trkpt lat="47.86037" lon="7.13643">
        <ele>869</ele>
        <time>2017-04-30T14:53:54Z</time>
      </trkpt>
      <trkpt lat="47.86041" lon="7.13655">
        <ele>868</ele>
        <time>2017-04-30T14:54:00Z</time>
      </trkpt>
      <trkpt lat="47.86042" lon="7.13668">
        <ele>873</ele>
        <time>2017-04-30T14:54:06Z</time>
      </trkpt>
      <trkpt lat="47.86042" lon="7.13679">
        <ele>873</ele>
        <time>2017-04-30T14:54:12Z</time>
      </trkpt>
      <trkpt lat="47.86048" lon="7.13685">
        <ele>871</ele>
        <time>2017-04-30T14:54:18Z</time>
      </trkpt>
      <trkpt lat="47.86053" lon="7.13695">
        <ele>870</ele>
        <time>2017-04-30T14:54:28Z</time>
      </trkpt>
      <trkpt lat="47.86056" lon="7.13705">
        <ele>871</ele>
        <time>2017-04-30T14:54:38Z</time>
      </trkpt>
      <trkpt lat="47.86062" lon="7.13711">
        <ele>869</ele>
        <time>2017-04-30T14:54:45Z</time>
      </trkpt>
      <trkpt lat="47.86067" lon="7.1372">
        <ele>869</ele>
        <time>2017-04-30T14:54:51Z</time>
      </trkpt>
      <trkpt lat="47.86074" lon="7.13725">
        <ele>867</ele>
        <time>2017-04-30T14:55:00Z</time>
      </trkpt>
      <trkpt lat="47.86081" lon="7.13732">
        <ele>865</ele>
        <time>2017-04-30T14:55:05Z</time>
      </trkpt>
      <trkpt lat="47.86087" lon="7.13744">
        <ele>851</ele>
        <time>2017-04-30T14:55:11Z</time>
      </trkpt>
      <trkpt lat="47.86088" lon="7.13755">
        <ele>854</ele>
        <time>2017-04-30T14:55:23Z</time>
      </trkpt>
      <trkpt lat="47.86092" lon="7.13765">
        <ele>850</ele>
        <time>2017-04-30T14:55:38Z</time>
      </trkpt>
      <trkpt lat="47.861" lon="7.13789">
        <ele>846</ele>
        <time>2017-04-30T14:55:46Z</time>
      </trkpt>
      <trkpt lat="47.86103" lon="7.13801">
        <ele>846</ele>
        <time>2017-04-30T14:55:52Z</time>
      </trkpt>
      <trkpt lat="47.86108" lon="7.13812">
        <ele>847</ele>
        <time>2017-04-30T14:55:58Z</time>
      </trkpt>
      <trkpt lat="47.86107" lon="7.13823">
        <ele>848</ele>
        <time>2017-04-30T14:56:06Z</time>
      </trkpt>
      <trkpt lat="47.86107" lon="7.13835">
        <ele>848</ele>
        <time>2017-04-30T14:56:14Z</time>
      </trkpt>
      <trkpt lat="47.86109" lon="7.13846">
        <ele>846</ele>
        <time>2017-04-30T14:56:21Z</time>
      </trkpt>
      <trkpt lat="47.86109" lon="7.13857">
        <ele>844</ele>
        <time>2017-04-30T14:56:27Z</time>
      </trkpt>
      <trkpt lat="47.86107" lon="7.13869">
        <ele>843</ele>
        <time>2017-04-30T14:56:33Z</time>
      </trkpt>
      <trkpt lat="47.86105" lon="7.13879">
        <ele>843</ele>
        <time>2017-04-30T14:56:39Z</time>
      </trkpt>
      <trkpt lat="47.86103" lon="7.13892">
        <ele>843</ele>
        <time>2017-04-30T14:56:46Z</time>
      </trkpt>
      <trkpt lat="47.86099" lon="7.13902">
        <ele>845</ele>
        <time>2017-04-30T14:56:51Z</time>
      </trkpt>
      <trkpt lat="47.86082" lon="7.13905">
        <ele>860</ele>
        <time>2017-04-30T14:57:02Z</time>
      </trkpt>
      <trkpt lat="47.86075" lon="7.13902">
        <ele>863</ele>
        <time>2017-04-30T14:57:07Z</time>
      </trkpt>
      <trkpt lat="47.86066" lon="7.13901">
        <ele>865</ele>
        <time>2017-04-30T14:57:18Z</time>
      </trkpt>
      <trkpt lat="47.86059" lon="7.13908">
        <ele>866</ele>
        <time>2017-04-30T14:57:26Z</time>
      </trkpt>
      <trkpt lat="47.86052" lon="7.13912">
        <ele>868</ele>
        <time>2017-04-30T14:57:34Z</time>
      </trkpt>
      <trkpt lat="47.86045" lon="7.13915">
        <ele>870</ele>
        <time>2017-04-30T14:57:48Z</time>
      </trkpt>
      <trkpt lat="47.86038" lon="7.13918">
        <ele>861</ele>
        <time>2017-04-30T14:57:53Z</time>
      </trkpt>
      <trkpt lat="47.86042" lon="7.13927">
        <ele>859</ele>
        <time>2017-04-30T14:57:59Z</time>
      </trkpt>
      <trkpt lat="47.86036" lon="7.13934">
        <ele>860</ele>
        <time>2017-04-30T14:58:06Z</time>
      </trkpt>
      <trkpt lat="47.86035" lon="7.13945">
        <ele>859</ele>
        <time>2017-04-30T14:58:15Z</time>
      </trkpt>
      <trkpt lat="47.8603" lon="7.13953">
        <ele>859</ele>
        <time>2017-04-30T14:58:23Z</time>
      </trkpt>
      <trkpt lat="47.86023" lon="7.13958">
        <ele>860</ele>
        <time>2017-04-30T14:58:29Z</time>
      </trkpt>
      <trkpt lat="47.86016" lon="7.13966">
        <ele>860</ele>
        <time>2017-04-30T14:58:37Z</time>
      </trkpt>
      <trkpt lat="47.86012" lon="7.13975">
        <ele>861</ele>
        <time>2017-04-30T14:58:42Z</time>
      </trkpt>
      <trkpt lat="47.86012" lon="7.13987">
        <ele>862</ele>
        <time>2017-04-30T14:58:50Z</time>
      </trkpt>
      <trkpt lat="47.86016" lon="7.13996">
        <ele>861</ele>
        <time>2017-04-30T14:58:53Z</time>
      </trkpt>
      <trkpt lat="47.86011" lon="7.14007">
        <ele>858</ele>
        <time>2017-04-30T14:59:01Z</time>
      </trkpt>
      <trkpt lat="47.86017" lon="7.14028">
        <ele>851</ele>
        <time>2017-04-30T14:59:11Z</time>
      </trkpt>
      <trkpt lat="47.86016" lon="7.14039">
        <ele>850</ele>
        <time>2017-04-30T14:59:16Z</time>
      </trkpt>
      <trkpt lat="47.86013" lon="7.1405">
        <ele>850</ele>
        <time>2017-04-30T14:59:21Z</time>
      </trkpt>
      <trkpt lat="47.86016" lon="7.14072">
        <ele>853</ele>
        <time>2017-04-30T14:59:34Z</time>
      </trkpt>
      <trkpt lat="47.86023" lon="7.14093">
        <ele>849</ele>
        <time>2017-04-30T14:59:46Z</time>
      </trkpt>
      <trkpt lat="47.86026" lon="7.14106">
        <ele>846</ele>
        <time>2017-04-30T14:59:51Z</time>
      </trkpt>
      <trkpt lat="47.86023" lon="7.14117">
        <ele>846</ele>
        <time>2017-04-30T14:59:57Z</time>
      </trkpt>
      <trkpt lat="47.8602" lon="7.14127">
        <ele>847</ele>
        <time>2017-04-30T15:00:02Z</time>
      </trkpt>
      <trkpt lat="47.86023" lon="7.14137">
        <ele>847</ele>
        <time>2017-04-30T15:00:07Z</time>
      </trkpt>
      <trkpt lat="47.86024" lon="7.1415">
        <ele>848</ele>
        <time>2017-04-30T15:00:13Z</time>
      </trkpt>
      <trkpt lat="47.86028" lon="7.14161">
        <ele>848</ele>
        <time>2017-04-30T15:00:18Z</time>
      </trkpt>
      <trkpt lat="47.86023" lon="7.14171">
        <ele>852</ele>
        <time>2017-04-30T15:00:25Z</time>
      </trkpt>
      <trkpt lat="47.86018" lon="7.14182">
        <ele>853</ele>
        <time>2017-04-30T15:00:31Z</time>
      </trkpt>
      <trkpt lat="47.8602" lon="7.14193">
        <ele>851</ele>
        <time>2017-04-30T15:00:37Z</time>
      </trkpt>
      <trkpt lat="47.8602" lon="7.14205">
        <ele>850</ele>
        <time>2017-04-30T15:00:45Z</time>
      </trkpt>
      <trkpt lat="47.86023" lon="7.14216">
        <ele>850</ele>
        <time>2017-04-30T15:00:50Z</time>
      </trkpt>
      <trkpt lat="47.86027" lon="7.14226">
        <ele>850</ele>
        <time>2017-04-30T15:00:59Z</time>
      </trkpt>
      <trkpt lat="47.86033" lon="7.14235">
        <ele>848</ele>
        <time>2017-04-30T15:01:05Z</time>
      </trkpt>
      <trkpt lat="47.86033" lon="7.14247">
        <ele>849</ele>
        <time>2017-04-30T15:01:12Z</time>
      </trkpt>
      <trkpt lat="47.8603" lon="7.14257">
        <ele>856</ele>
        <time>2017-04-30T15:01:18Z</time>
      </trkpt>
      <trkpt lat="47.86033" lon="7.14267">
        <ele>854</ele>
        <time>2017-04-30T15:01:25Z</time>
      </trkpt>
      <trkpt lat="47.86029" lon="7.14277">
        <ele>855</ele>
        <time>2017-04-30T15:01:32Z</time>
      </trkpt>
      <trkpt lat="47.86031" lon="7.14288">
        <ele>855</ele>
        <time>2017-04-30T15:01:39Z</time>
      </trkpt>
      <trkpt lat="47.86031" lon="7.14298">
        <ele>855</ele>
        <time>2017-04-30T15:01:45Z</time>
      </trkpt>
      <trkpt lat="47.86029" lon="7.1431">
        <ele>857</ele>
        <time>2017-04-30T15:01:53Z</time>
      </trkpt>
      <trkpt lat="47.86034" lon="7.14319">
        <ele>856</ele>
        <time>2017-04-30T15:01:58Z</time>
      </trkpt>
      <trkpt lat="47.86034" lon="7.14332">
        <ele>857</ele>
        <time>2017-04-30T15:02:04Z</time>
      </trkpt>
      <trkpt lat="47.86037" lon="7.14342">
        <ele>861</ele>
        <time>2017-04-30T15:02:09Z</time>
      </trkpt>
      <trkpt lat="47.86034" lon="7.14355">
        <ele>862</ele>
        <time>2017-04-30T15:02:16Z</time>
      </trkpt>
      <trkpt lat="47.86036" lon="7.14367">
        <ele>861</ele>
        <time>2017-04-30T15:02:23Z</time>
      </trkpt>
      <trkpt lat="47.86032" lon="7.14376">
        <ele>863</ele>
        <time>2017-04-30T15:02:30Z</time>
      </trkpt>
      <trkpt lat="47.86028" lon="7.14387">
        <ele>864</ele>
        <time>2017-04-30T15:02:37Z</time>
      </trkpt>
      <trkpt lat="47.86019" lon="7.14405">
        <ele>871</ele>
        <time>2017-04-30T15:02:49Z</time>
      </trkpt>
      <trkpt lat="47.86018" lon="7.14416">
        <ele>874</ele>
        <time>2017-04-30T15:02:57Z</time>
      </trkpt>
      <trkpt lat="47.86014" lon="7.14427">
        <ele>873</ele>
        <time>2017-04-30T15:03:05Z</time>
      </trkpt>
      <trkpt lat="47.86011" lon="7.14437">
        <ele>871</ele>
        <time>2017-04-30T15:03:12Z</time>
      </trkpt>
      <trkpt lat="47.8601" lon="7.14448">
        <ele>869</ele>
        <time>2017-04-30T15:03:21Z</time>
      </trkpt>
      <trkpt lat="47.86007" lon="7.1446">
        <ele>868</ele>
        <time>2017-04-30T15:03:30Z</time>
      </trkpt>
      <trkpt lat="47.86005" lon="7.14472">
        <ele>869</ele>
        <time>2017-04-30T15:03:36Z</time>
      </trkpt>
      <trkpt lat="47.85991" lon="7.1448">
        <ele>902</ele>
        <time>2017-04-30T15:03:43Z</time>
      </trkpt>
      <trkpt lat="47.85987" lon="7.14489">
        <ele>900</ele>
        <time>2017-04-30T15:03:48Z</time>
      </trkpt>
      <trkpt lat="47.85979" lon="7.14507">
        <ele>898</ele>
        <time>2017-04-30T15:04:02Z</time>
      </trkpt>
      <trkpt lat="47.85976" lon="7.14517">
        <ele>900</ele>
        <time>2017-04-30T15:04:10Z</time>
      </trkpt>
      <trkpt lat="47.85969" lon="7.14524">
        <ele>903</ele>
        <time>2017-04-30T15:04:16Z</time>
      </trkpt>
      <trkpt lat="47.85969" lon="7.14536">
        <ele>903</ele>
        <time>2017-04-30T15:04:23Z</time>
      </trkpt>
      <trkpt lat="47.85968" lon="7.14546">
        <ele>902</ele>
        <time>2017-04-30T15:04:30Z</time>
      </trkpt>
      <trkpt lat="47.85963" lon="7.14554">
        <ele>903</ele>
        <time>2017-04-30T15:04:36Z</time>
      </trkpt>
      <trkpt lat="47.85959" lon="7.14564">
        <ele>903</ele>
        <time>2017-04-30T15:04:42Z</time>
      </trkpt>
      <trkpt lat="47.85952" lon="7.14571">
        <ele>906</ele>
        <time>2017-04-30T15:04:48Z</time>
      </trkpt>
      <trkpt lat="47.85946" lon="7.1458">
        <ele>908</ele>
        <time>2017-04-30T15:04:54Z</time>
      </trkpt>
      <trkpt lat="47.85948" lon="7.14592">
        <ele>898</ele>
        <time>2017-04-30T15:05:01Z</time>
      </trkpt>
      <trkpt lat="47.85943" lon="7.146">
        <ele>899</ele>
        <time>2017-04-30T15:05:06Z</time>
      </trkpt>
      <trkpt lat="47.85941" lon="7.14611">
        <ele>897</ele>
        <time>2017-04-30T15:05:16Z</time>
      </trkpt>
      <trkpt lat="47.8594" lon="7.14622">
        <ele>896</ele>
        <time>2017-04-30T15:05:23Z</time>
      </trkpt>
      <trkpt lat="47.85941" lon="7.14633">
        <ele>894</ele>
        <time>2017-04-30T15:05:29Z</time>
      </trkpt>
      <trkpt lat="47.85935" lon="7.14641">
        <ele>896</ele>
        <time>2017-04-30T15:05:33Z</time>
      </trkpt>
      <trkpt lat="47.8593" lon="7.1465">
        <ele>898</ele>
        <time>2017-04-30T15:05:39Z</time>
      </trkpt>
      <trkpt lat="47.85927" lon="7.14659">
        <ele>900</ele>
        <time>2017-04-30T15:05:44Z</time>
      </trkpt>
      <trkpt lat="47.85931" lon="7.14671">
        <ele>894</ele>
        <time>2017-04-30T15:05:49Z</time>
      </trkpt>
      <trkpt lat="47.85929" lon="7.14683">
        <ele>891</ele>
        <time>2017-04-30T15:05:55Z</time>
      </trkpt>
      <trkpt lat="47.85923" lon="7.14694">
        <ele>889</ele>
        <time>2017-04-30T15:06:00Z</time>
      </trkpt>
      <trkpt lat="47.8592" lon="7.14704">
        <ele>887</ele>
        <time>2017-04-30T15:06:07Z</time>
      </trkpt>
      <trkpt lat="47.85916" lon="7.14714">
        <ele>910</ele>
        <time>2017-04-30T15:06:12Z</time>
      </trkpt>
      <trkpt lat="47.85912" lon="7.14723">
        <ele>909</ele>
        <time>2017-04-30T15:06:18Z</time>
      </trkpt>
      <trkpt lat="47.85905" lon="7.1472">
        <ele>910</ele>
        <time>2017-04-30T15:06:27Z</time>
      </trkpt>
      <trkpt lat="47.85898" lon="7.14724">
        <ele>910</ele>
        <time>2017-04-30T15:06:33Z</time>
      </trkpt>
      <trkpt lat="47.85897" lon="7.14736">
        <ele>909</ele>
        <time>2017-04-30T15:06:40Z</time>
      </trkpt>
      <trkpt lat="47.85897" lon="7.14748">
        <ele>908</ele>
        <time>2017-04-30T15:06:47Z</time>
      </trkpt>
      <trkpt lat="47.85894" lon="7.14758">
        <ele>904</ele>
        <time>2017-04-30T15:06:55Z</time>
      </trkpt>
      <trkpt lat="47.85897" lon="7.1477">
        <ele>904</ele>
        <time>2017-04-30T15:07:03Z</time>
      </trkpt>
      <trkpt lat="47.85891" lon="7.14778">
        <ele>904</ele>
        <time>2017-04-30T15:07:09Z</time>
      </trkpt>
      <trkpt lat="47.85894" lon="7.14788">
        <ele>904</ele>
        <time>2017-04-30T15:07:15Z</time>
      </trkpt>
      <trkpt lat="47.85895" lon="7.14799">
        <ele>903</ele>
        <time>2017-04-30T15:07:22Z</time>
      </trkpt>
      <trkpt lat="47.85883" lon="7.14815">
        <ele>903</ele>
        <time>2017-04-30T15:07:32Z</time>
      </trkpt>
      <trkpt lat="47.85879" lon="7.14824">
        <ele>903</ele>
        <time>2017-04-30T15:07:40Z</time>
      </trkpt>
      <trkpt lat="47.85878" lon="7.14835">
        <ele>900</ele>
        <time>2017-04-30T15:09:24Z</time>
      </trkpt>
      <trkpt lat="47.85878" lon="7.14846">
        <ele>900</ele>
        <time>2017-04-30T15:09:39Z</time>
      </trkpt>
      <trkpt lat="47.85874" lon="7.14855">
        <ele>901</ele>
        <time>2017-04-30T15:09:47Z</time>
      </trkpt>
      <trkpt lat="47.8587" lon="7.14866">
        <ele>901</ele>
        <time>2017-04-30T15:09:54Z</time>
      </trkpt>
      <trkpt lat="47.85866" lon="7.14876">
        <ele>901</ele>
        <time>2017-04-30T15:10:04Z</time>
      </trkpt>
      <trkpt lat="47.85864" lon="7.14887">
        <ele>901</ele>
        <time>2017-04-30T15:10:14Z</time>
      </trkpt>
      <trkpt lat="47.85867" lon="7.14898">
        <ele>900</ele>
        <time>2017-04-30T15:10:23Z</time>
      </trkpt>
      <trkpt lat="47.85871" lon="7.14909">
        <ele>900</ele>
        <time>2017-04-30T15:10:30Z</time>
      </trkpt>
      <trkpt lat="47.85872" lon="7.1492">
        <ele>899</ele>
        <time>2017-04-30T15:10:36Z</time>
      </trkpt>
      <trkpt lat="47.85879" lon="7.14922">
        <ele>899</ele>
        <time>2017-04-30T15:10:42Z</time>
      </trkpt>
      <trkpt lat="47.85882" lon="7.14933">
        <ele>899</ele>
        <time>2017-04-30T15:10:50Z</time>
      </trkpt>
      <trkpt lat="47.85887" lon="7.14942">
        <ele>899</ele>
        <time>2017-04-30T15:10:58Z</time>
      </trkpt>
      <trkpt lat="47.85888" lon="7.14953">
        <ele>899</ele>
        <time>2017-04-30T15:11:04Z</time>
      </trkpt>
      <trkpt lat="47.85886" lon="7.14964">
        <ele>899</ele>
        <time>2017-04-30T15:11:11Z</time>
      </trkpt>
      <trkpt lat="47.85883" lon="7.14974">
        <ele>899</ele>
        <time>2017-04-30T15:11:18Z</time>
      </trkpt>
      <trkpt lat="47.85881" lon="7.14986">
        <ele>899</ele>
        <time>2017-04-30T15:11:25Z</time>
      </trkpt>
      <trkpt lat="47.8588" lon="7.14997">
        <ele>899</ele>
        <time>2017-04-30T15:11:33Z</time>
      </trkpt>
      <trkpt lat="47.85879" lon="7.15009">
        <ele>898</ele>
        <time>2017-04-30T15:11:48Z</time>
      </trkpt>
      <trkpt lat="47.85879" lon="7.1502">
        <ele>898</ele>
        <time>2017-04-30T15:12:01Z</time>
      </trkpt>
      <trkpt lat="47.85876" lon="7.1503">
        <ele>898</ele>
        <time>2017-04-30T15:12:11Z</time>
      </trkpt>
      <trkpt lat="47.85872" lon="7.1504">
        <ele>897</ele>
        <time>2017-04-30T15:12:19Z</time>
      </trkpt>
      <trkpt lat="47.85869" lon="7.15051">
        <ele>897</ele>
        <time>2017-04-30T15:12:29Z</time>
      </trkpt>
      <trkpt lat="47.85868" lon="7.15062">
        <ele>897</ele>
        <time>2017-04-30T15:13:03Z</time>
      </trkpt>
      <trkpt lat="47.85866" lon="7.1505">
        <ele>897</ele>
        <time>2017-04-30T15:18:26Z</time>
      </trkpt>
      <trkpt lat="47.85873" lon="7.15045">
        <ele>897</ele>
        <time>2017-04-30T15:18:33Z</time>
      </trkpt>
      <trkpt lat="47.85881" lon="7.15038">
        <ele>897</ele>
        <time>2017-04-30T15:18:42Z</time>
      </trkpt>
      <trkpt lat="47.85878" lon="7.15028">
        <ele>898</ele>
        <time>2017-04-30T15:18:56Z</time>
      </trkpt>
      <trkpt lat="47.85876" lon="7.15017">
        <ele>898</ele>
        <time>2017-04-30T15:19:06Z</time>
      </trkpt>
      <trkpt lat="47.85875" lon="7.15006">
        <ele>898</ele>
        <time>2017-04-30T15:19:24Z</time>
      </trkpt>
      <trkpt lat="47.8587" lon="7.14999">
        <ele>899</ele>
        <time>2017-04-30T15:19:31Z</time>
      </trkpt>
      <trkpt lat="47.85863" lon="7.14993">
        <ele>899</ele>
        <time>2017-04-30T15:19:38Z</time>
      </trkpt>
      <trkpt lat="47.85855" lon="7.14989">
        <ele>899</ele>
        <time>2017-04-30T15:19:46Z</time>
      </trkpt>
      <trkpt lat="47.85851" lon="7.1498">
        <ele>899</ele>
        <time>2017-04-30T15:19:55Z</time>
      </trkpt>
      <trkpt lat="47.85844" lon="7.14975">
        <ele>899</ele>
        <time>2017-04-30T15:20:07Z</time>
      </trkpt>
      <trkpt lat="47.85837" lon="7.14977">
        <ele>899</ele>
        <time>2017-04-30T15:20:16Z</time>
      </trkpt>
      <trkpt lat="47.85831" lon="7.14969">
        <ele>895</ele>
        <time>2017-04-30T15:20:40Z</time>
      </trkpt>
      <trkpt lat="47.85826" lon="7.14959">
        <ele>895</ele>
        <time>2017-04-30T15:20:48Z</time>
      </trkpt>
      <trkpt lat="47.85822" lon="7.14949">
        <ele>895</ele>
        <time>2017-04-30T15:20:57Z</time>
      </trkpt>
      <trkpt lat="47.85822" lon="7.14936">
        <ele>896</ele>
        <time>2017-04-30T15:21:03Z</time>
      </trkpt>
      <trkpt lat="47.85825" lon="7.14926">
        <ele>897</ele>
        <time>2017-04-30T15:21:09Z</time>
      </trkpt>
      <trkpt lat="47.8583" lon="7.14919">
        <ele>900</ele>
        <time>2017-04-30T15:21:17Z</time>
      </trkpt>
      <trkpt lat="47.85836" lon="7.1491">
        <ele>901</ele>
        <time>2017-04-30T15:21:24Z</time>
      </trkpt>
      <trkpt lat="47.85839" lon="7.14899">
        <ele>901</ele>
        <time>2017-04-30T15:21:33Z</time>
      </trkpt>
      <trkpt lat="47.85843" lon="7.14888">
        <ele>901</ele>
        <time>2017-04-30T15:21:40Z</time>
      </trkpt>
      <trkpt lat="47.85848" lon="7.14879">
        <ele>901</ele>
        <time>2017-04-30T15:21:49Z</time>
      </trkpt>
      <trkpt lat="47.85841" lon="7.14873">
        <ele>902</ele>
        <time>2017-04-30T15:22:01Z</time>
      </trkpt>
      <trkpt lat="47.85834" lon="7.14875">
        <ele>902</ele>
        <time>2017-04-30T15:22:08Z</time>
      </trkpt>
      <trkpt lat="47.85826" lon="7.14876">
        <ele>901</ele>
        <time>2017-04-30T15:22:17Z</time>
      </trkpt>
      <trkpt lat="47.85818" lon="7.14878">
        <ele>900</ele>
        <time>2017-04-30T15:22:25Z</time>
      </trkpt>
      <trkpt lat="47.85809" lon="7.14877">
        <ele>900</ele>
        <time>2017-04-30T15:22:39Z</time>
      </trkpt>
      <trkpt lat="47.85801" lon="7.14874">
        <ele>900</ele>
        <time>2017-04-30T15:22:45Z</time>
      </trkpt>
      <trkpt lat="47.85793" lon="7.1487">
        <ele>899</ele>
        <time>2017-04-30T15:22:51Z</time>
      </trkpt>
      <trkpt lat="47.85788" lon="7.1486">
        <ele>900</ele>
        <time>2017-04-30T15:22:58Z</time>
      </trkpt>
      <trkpt lat="47.85785" lon="7.14851">
        <ele>900</ele>
        <time>2017-04-30T15:23:05Z</time>
      </trkpt>
      <trkpt lat="47.85784" lon="7.1484">
        <ele>900</ele>
        <time>2017-04-30T15:23:32Z</time>
      </trkpt>
      <trkpt lat="47.85777" lon="7.14835">
        <ele>900</ele>
        <time>2017-04-30T15:24:48Z</time>
      </trkpt>
      <trkpt lat="47.85774" lon="7.14824">
        <ele>905</ele>
        <time>2017-04-30T15:25:16Z</time>
      </trkpt>
      <trkpt lat="47.8577" lon="7.14813">
        <ele>906</ele>
        <time>2017-04-30T15:25:24Z</time>
      </trkpt>
      <trkpt lat="47.85764" lon="7.14805">
        <ele>906</ele>
        <time>2017-04-30T15:25:35Z</time>
      </trkpt>
      <trkpt lat="47.85759" lon="7.14796">
        <ele>907</ele>
        <time>2017-04-30T15:25:42Z</time>
      </trkpt>
      <trkpt lat="47.85753" lon="7.14788">
        <ele>907</ele>
        <time>2017-04-30T15:25:50Z</time>
      </trkpt>
      <trkpt lat="47.85747" lon="7.14778">
        <ele>901</ele>
        <time>2017-04-30T15:25:57Z</time>
      </trkpt>
      <trkpt lat="47.85742" lon="7.1477">
        <ele>902</ele>
        <time>2017-04-30T15:26:04Z</time>
      </trkpt>
      <trkpt lat="47.85739" lon="7.14759">
        <ele>903</ele>
        <time>2017-04-30T15:26:11Z</time>
      </trkpt>
      <trkpt lat="47.85734" lon="7.14751">
        <ele>903</ele>
        <time>2017-04-30T15:26:25Z</time>
      </trkpt>
      <trkpt lat="47.85724" lon="7.14747">
        <ele>907</ele>
        <time>2017-04-30T15:26:49Z</time>
      </trkpt>
      <trkpt lat="47.85726" lon="7.14736">
        <ele>908</ele>
        <time>2017-04-30T15:26:58Z</time>
      </trkpt>
      <trkpt lat="47.85722" lon="7.14727">
        <ele>908</ele>
        <time>2017-04-30T15:27:06Z</time>
      </trkpt>
      <trkpt lat="47.85719" lon="7.14717">
        <ele>908</ele>
        <time>2017-04-30T15:27:14Z</time>
      </trkpt>
      <trkpt lat="47.85723" lon="7.14705">
        <ele>910</ele>
        <time>2017-04-30T15:28:40Z</time>
      </trkpt>
      <trkpt lat="47.85731" lon="7.14706">
        <ele>910</ele>
        <time>2017-04-30T15:28:52Z</time>
      </trkpt>
      <trkpt lat="47.85737" lon="7.14699">
        <ele>912</ele>
        <time>2017-04-30T15:29:01Z</time>
      </trkpt>
      <trkpt lat="47.85744" lon="7.14697">
        <ele>913</ele>
        <time>2017-04-30T15:29:08Z</time>
      </trkpt>
      <trkpt lat="47.85753" lon="7.14694">
        <ele>920</ele>
        <time>2017-04-30T15:29:15Z</time>
      </trkpt>
      <trkpt lat="47.85762" lon="7.14691">
        <ele>921</ele>
        <time>2017-04-30T15:29:25Z</time>
      </trkpt>
      <trkpt lat="47.85769" lon="7.14687">
        <ele>921</ele>
        <time>2017-04-30T15:29:32Z</time>
      </trkpt>
      <trkpt lat="47.85774" lon="7.14677">
        <ele>922</ele>
        <time>2017-04-30T15:29:45Z</time>
      </trkpt>
      <trkpt lat="47.85767" lon="7.1467">
        <ele>922</ele>
        <time>2017-04-30T15:29:52Z</time>
      </trkpt>
      <trkpt lat="47.85763" lon="7.14659">
        <ele>928</ele>
        <time>2017-04-30T15:30:12Z</time>
      </trkpt>
      <trkpt lat="47.85762" lon="7.14647">
        <ele>930</ele>
        <time>2017-04-30T15:30:18Z</time>
      </trkpt>
      <trkpt lat="47.85759" lon="7.14637">
        <ele>931</ele>
        <time>2017-04-30T15:30:24Z</time>
      </trkpt>
      <trkpt lat="47.85748" lon="7.14621">
        <ele>924</ele>
        <time>2017-04-30T15:30:37Z</time>
      </trkpt>
      <trkpt lat="47.8574" lon="7.14609">
        <ele>926</ele>
        <time>2017-04-30T15:30:56Z</time>
      </trkpt>
      <trkpt lat="47.85728" lon="7.14592">
        <ele>926</ele>
        <time>2017-04-30T15:31:05Z</time>
      </trkpt>
      <trkpt lat="47.85725" lon="7.1458">
        <ele>932</ele>
        <time>2017-04-30T15:31:10Z</time>
      </trkpt>
      <trkpt lat="47.85724" lon="7.14569">
        <ele>932</ele>
        <time>2017-04-30T15:31:15Z</time>
      </trkpt>
      <trkpt lat="47.85721" lon="7.14559">
        <ele>932</ele>
        <time>2017-04-30T15:31:22Z</time>
      </trkpt>
      <trkpt lat="47.85721" lon="7.14548">
        <ele>933</ele>
        <time>2017-04-30T15:31:28Z</time>
      </trkpt>
      <trkpt lat="47.85721" lon="7.14536">
        <ele>934</ele>
        <time>2017-04-30T15:31:34Z</time>
      </trkpt>
      <trkpt lat="47.85718" lon="7.14525">
        <ele>934</ele>
        <time>2017-04-30T15:31:41Z</time>
      </trkpt>
      <trkpt lat="47.85715" lon="7.14514">
        <ele>935</ele>
        <time>2017-04-30T15:31:48Z</time>
      </trkpt>
      <trkpt lat="47.85708" lon="7.14506">
        <ele>933</ele>
        <time>2017-04-30T15:31:54Z</time>
      </trkpt>
      <trkpt lat="47.85703" lon="7.14497">
        <ele>939</ele>
        <time>2017-04-30T15:32:01Z</time>
      </trkpt>
      <trkpt lat="47.85705" lon="7.14485">
        <ele>940</ele>
        <time>2017-04-30T15:32:06Z</time>
      </trkpt>
      <trkpt lat="47.85708" lon="7.14475">
        <ele>942</ele>
        <time>2017-04-30T15:32:12Z</time>
      </trkpt>
      <trkpt lat="47.85709" lon="7.14463">
        <ele>943</ele>
        <time>2017-04-30T15:32:18Z</time>
      </trkpt>
      <trkpt lat="47.85703" lon="7.14454">
        <ele>942</ele>
        <time>2017-04-30T15:32:28Z</time>
      </trkpt>
      <trkpt lat="47.85703" lon="7.14441">
        <ele>943</ele>
        <time>2017-04-30T15:32:33Z</time>
      </trkpt>
      <trkpt lat="47.85705" lon="7.14429">
        <ele>944</ele>
        <time>2017-04-30T15:32:40Z</time>
      </trkpt>
      <trkpt lat="47.85703" lon="7.14417">
        <ele>944</ele>
        <time>2017-04-30T15:32:47Z</time>
      </trkpt>
      <trkpt lat="47.85703" lon="7.14405">
        <ele>950</ele>
        <time>2017-04-30T15:32:54Z</time>
      </trkpt>
      <trkpt lat="47.85707" lon="7.14396">
        <ele>952</ele>
        <time>2017-04-30T15:32:59Z</time>
      </trkpt>
      <trkpt lat="47.85711" lon="7.14384">
        <ele>953</ele>
        <time>2017-04-30T15:33:06Z</time>
      </trkpt>
      <trkpt lat="47.85712" lon="7.1437">
        <ele>954</ele>
        <time>2017-04-30T15:33:12Z</time>
      </trkpt>
      <trkpt lat="47.85709" lon="7.14359">
        <ele>954</ele>
        <time>2017-04-30T15:33:19Z</time>
      </trkpt>
      <trkpt lat="47.85708" lon="7.14348">
        <ele>954</ele>
        <time>2017-04-30T15:33:24Z</time>
      </trkpt>
      <trkpt lat="47.85706" lon="7.14337">
        <ele>954</ele>
        <time>2017-04-30T15:33:30Z</time>
      </trkpt>
      <trkpt lat="47.85704" lon="7.14326">
        <ele>960</ele>
        <time>2017-04-30T15:33:36Z</time>
      </trkpt>
      <trkpt lat="47.85699" lon="7.14317">
        <ele>960</ele>
        <time>2017-04-30T15:33:43Z</time>
      </trkpt>
      <trkpt lat="47.85696" lon="7.14305">
        <ele>960</ele>
        <time>2017-04-30T15:33:50Z</time>
      </trkpt>
      <trkpt lat="47.85699" lon="7.14295">
        <ele>961</ele>
        <time>2017-04-30T15:33:56Z</time>
      </trkpt>
      <trkpt lat="47.85697" lon="7.14284">
        <ele>962</ele>
        <time>2017-04-30T15:34:08Z</time>
      </trkpt>
      <trkpt lat="47.85695" lon="7.14272">
        <ele>962</ele>
        <time>2017-04-30T15:34:15Z</time>
      </trkpt>
      <trkpt lat="47.85691" lon="7.14248">
        <ele>967</ele>
        <time>2017-04-30T15:34:25Z</time>
      </trkpt>
      <trkpt lat="47.85692" lon="7.14237">
        <ele>968</ele>
        <time>2017-04-30T15:34:30Z</time>
      </trkpt>
      <trkpt lat="47.85692" lon="7.14226">
        <ele>969</ele>
        <time>2017-04-30T15:34:36Z</time>
      </trkpt>
      <trkpt lat="47.85691" lon="7.14215">
        <ele>970</ele>
        <time>2017-04-30T15:34:42Z</time>
      </trkpt>
      <trkpt lat="47.85693" lon="7.14203">
        <ele>971</ele>
        <time>2017-04-30T15:34:47Z</time>
      </trkpt>
      <trkpt lat="47.85693" lon="7.14192">
        <ele>971</ele>
        <time>2017-04-30T15:34:53Z</time>
      </trkpt>
      <trkpt lat="47.85693" lon="7.14181">
        <ele>971</ele>
        <time>2017-04-30T15:34:58Z</time>
      </trkpt>
      <trkpt lat="47.85696" lon="7.14171">
        <ele>972</ele>
        <time>2017-04-30T15:35:05Z</time>
      </trkpt>
      <trkpt lat="47.85703" lon="7.1415">
        <ele>978</ele>
        <time>2017-04-30T15:35:16Z</time>
      </trkpt>
      <trkpt lat="47.85707" lon="7.14141">
        <ele>979</ele>
        <time>2017-04-30T15:35:36Z</time>
      </trkpt>
      <trkpt lat="47.85717" lon="7.14122">
        <ele>981</ele>
        <time>2017-04-30T15:35:53Z</time>
      </trkpt>
      <trkpt lat="47.85722" lon="7.14114">
        <ele>982</ele>
        <time>2017-04-30T15:36:22Z</time>
      </trkpt>
      <trkpt lat="47.85721" lon="7.14101">
        <ele>982</ele>
        <time>2017-04-30T15:36:28Z</time>
      </trkpt>
      <trkpt lat="47.85724" lon="7.14091">
        <ele>983</ele>
        <time>2017-04-30T15:36:35Z</time>
      </trkpt>
      <trkpt lat="47.85724" lon="7.14079">
        <ele>985</ele>
        <time>2017-04-30T15:36:41Z</time>
      </trkpt>
      <trkpt lat="47.85723" lon="7.14067">
        <ele>985</ele>
        <time>2017-04-30T15:36:47Z</time>
      </trkpt>
      <trkpt lat="47.85726" lon="7.14055">
        <ele>985</ele>
        <time>2017-04-30T15:36:55Z</time>
      </trkpt>
      <trkpt lat="47.85731" lon="7.14046">
        <ele>986</ele>
        <time>2017-04-30T15:37:01Z</time>
      </trkpt>
      <trkpt lat="47.85733" lon="7.14036">
        <ele>986</ele>
        <time>2017-04-30T15:37:07Z</time>
      </trkpt>
      <trkpt lat="47.85733" lon="7.14023">
        <ele>987</ele>
        <time>2017-04-30T15:37:17Z</time>
      </trkpt>
      <trkpt lat="47.85734" lon="7.1401">
        <ele>988</ele>
        <time>2017-04-30T15:37:24Z</time>
      </trkpt>
      <trkpt lat="47.85733" lon="7.13998">
        <ele>991</ele>
        <time>2017-04-30T15:37:31Z</time>
      </trkpt>
      <trkpt lat="47.85735" lon="7.13986">
        <ele>991</ele>
        <time>2017-04-30T15:37:41Z</time>
      </trkpt>
      <trkpt lat="47.85738" lon="7.13976">
        <ele>991</ele>
        <time>2017-04-30T15:37:48Z</time>
      </trkpt>
      <trkpt lat="47.85734" lon="7.13966">
        <ele>991</ele>
        <time>2017-04-30T15:37:54Z</time>
      </trkpt>
      <trkpt lat="47.85733" lon="7.13955">
        <ele>991</ele>
        <time>2017-04-30T15:38:03Z</time>
      </trkpt>
      <trkpt lat="47.85738" lon="7.13945">
        <ele>992</ele>
        <time>2017-04-30T15:38:08Z</time>
      </trkpt>
      <trkpt lat="47.85745" lon="7.13941">
        <ele>993</ele>
        <time>2017-04-30T15:38:13Z</time>
      </trkpt>
      <trkpt lat="47.85746" lon="7.1393">
        <ele>995</ele>
        <time>2017-04-30T15:38:27Z</time>
      </trkpt>
      <trkpt lat="47.85742" lon="7.1392">
        <ele>996</ele>
        <time>2017-04-30T15:38:43Z</time>
      </trkpt>
      <trkpt lat="47.8574" lon="7.1391">
        <ele>997</ele>
        <time>2017-04-30T15:38:50Z</time>
      </trkpt>
      <trkpt lat="47.85744" lon="7.139">
        <ele>997</ele>
        <time>2017-04-30T15:38:56Z</time>
      </trkpt>
      <trkpt lat="47.85748" lon="7.13891">
        <ele>997</ele>
        <time>2017-04-30T15:39:02Z</time>
      </trkpt>
      <trkpt lat="47.85754" lon="7.13882">
        <ele>998</ele>
        <time>2017-04-30T15:39:09Z</time>
      </trkpt>
      <trkpt lat="47.85758" lon="7.13873">
        <ele>998</ele>
        <time>2017-04-30T15:39:23Z</time>
      </trkpt>
      <trkpt lat="47.85766" lon="7.13873">
        <ele>998</ele>
        <time>2017-04-30T15:40:25Z</time>
      </trkpt>
      <trkpt lat="47.85758" lon="7.13868">
        <ele>998</ele>
        <time>2017-04-30T15:42:53Z</time>
      </trkpt>
      <trkpt lat="47.85751" lon="7.13863">
        <ele>999</ele>
        <time>2017-04-30T15:42:59Z</time>
      </trkpt>
      <trkpt lat="47.85747" lon="7.13853">
        <ele>999</ele>
        <time>2017-04-30T15:43:09Z</time>
      </trkpt>
      <trkpt lat="47.85742" lon="7.13845">
        <ele>1000</ele>
        <time>2017-04-30T15:43:21Z</time>
      </trkpt>
      <trkpt lat="47.85737" lon="7.13837">
        <ele>1000</ele>
        <time>2017-04-30T15:43:26Z</time>
      </trkpt>
      <trkpt lat="47.85732" lon="7.13828">
        <ele>1001</ele>
        <time>2017-04-30T15:43:32Z</time>
      </trkpt>
      <trkpt lat="47.85726" lon="7.1382">
        <ele>1000</ele>
        <time>2017-04-30T15:43:38Z</time>
      </trkpt>
      <trkpt lat="47.85721" lon="7.13811">
        <ele>1000</ele>
        <time>2017-04-30T15:43:48Z</time>
      </trkpt>
      <trkpt lat="47.85715" lon="7.13802">
        <ele>1000</ele>
        <time>2017-04-30T15:43:56Z</time>
      </trkpt>
      <trkpt lat="47.8571" lon="7.13793">
        <ele>999</ele>
        <time>2017-04-30T15:44:02Z</time>
      </trkpt>
      <trkpt lat="47.85702" lon="7.13787">
        <ele>999</ele>
        <time>2017-04-30T15:44:09Z</time>
      </trkpt>
      <trkpt lat="47.85695" lon="7.13782">
        <ele>998</ele>
        <time>2017-04-30T15:44:14Z</time>
      </trkpt>
      <trkpt lat="47.85687" lon="7.13772">
        <ele>998</ele>
        <time>2017-04-30T15:44:26Z</time>
      </trkpt>
      <trkpt lat="47.85681" lon="7.13763">
        <ele>997</ele>
        <time>2017-04-30T15:44:32Z</time>
      </trkpt>
      <trkpt lat="47.85678" lon="7.13752">
        <ele>997</ele>
        <time>2017-04-30T15:44:37Z</time>
      </trkpt>
      <trkpt lat="47.85679" lon="7.13741">
        <ele>999</ele>
        <time>2017-04-30T15:44:42Z</time>
      </trkpt>
      <trkpt lat="47.85678" lon="7.13729">
        <ele>1001</ele>
        <time>2017-04-30T15:44:48Z</time>
      </trkpt>
      <trkpt lat="47.85672" lon="7.1372">
        <ele>1001</ele>
        <time>2017-04-30T15:44:58Z</time>
      </trkpt>
      <trkpt lat="47.85667" lon="7.13712">
        <ele>1002</ele>
        <time>2017-04-30T15:45:17Z</time>
      </trkpt>
      <trkpt lat="47.85663" lon="7.13703">
        <ele>995</ele>
        <time>2017-04-30T15:45:33Z</time>
      </trkpt>
      <trkpt lat="47.85657" lon="7.13696">
        <ele>996</ele>
        <time>2017-04-30T15:46:08Z</time>
      </trkpt>
      <trkpt lat="47.85653" lon="7.13686">
        <ele>996</ele>
        <time>2017-04-30T15:46:17Z</time>
      </trkpt>
      <trkpt lat="47.85648" lon="7.13679">
        <ele>997</ele>
        <time>2017-04-30T15:46:24Z</time>
      </trkpt>
      <trkpt lat="47.85645" lon="7.13668">
        <ele>997</ele>
        <time>2017-04-30T15:46:33Z</time>
      </trkpt>
      <trkpt lat="47.85642" lon="7.13658">
        <ele>1003</ele>
        <time>2017-04-30T15:46:39Z</time>
      </trkpt>
      <trkpt lat="47.85637" lon="7.13649">
        <ele>1004</ele>
        <time>2017-04-30T15:46:47Z</time>
      </trkpt>
      <trkpt lat="47.85633" lon="7.13639">
        <ele>1005</ele>
        <time>2017-04-30T15:46:53Z</time>
      </trkpt>
      <trkpt lat="47.85627" lon="7.13633">
        <ele>1005</ele>
        <time>2017-04-30T15:47:00Z</time>
      </trkpt>
      <trkpt lat="47.8562" lon="7.13627">
        <ele>1005</ele>
        <time>2017-04-30T15:47:08Z</time>
      </trkpt>
      <trkpt lat="47.85613" lon="7.13622">
        <ele>1006</ele>
        <time>2017-04-30T15:47:15Z</time>
      </trkpt>
      <trkpt lat="47.85606" lon="7.13618">
        <ele>1006</ele>
        <time>2017-04-30T15:47:23Z</time>
      </trkpt>
      <trkpt lat="47.856" lon="7.1361">
        <ele>1007</ele>
        <time>2017-04-30T15:48:45Z</time>
      </trkpt>
    </trkseg>
  </trk>
</gpx>